Observation data for Estelline on 05/15/2018      Previous  Date  Next       Current Mesonet Observations  Soil Data  Daily Summary Page  Observations in Plain Language
KES1 150500Z 13003KT 17/15 A299 RMK A01 T01720148  RH  086%=      5-min Rain = 0
KES1 150501Z 16002KT 17/15 A299 RMK A01 T01730146  RH  084%=      5-min Rain = 0
KES1 150502Z 17002KT 18/15 A299 RMK A01 T01750145  RH  083%=      5-min Rain = 0
KES1 150503Z 18003KT 18/15 A299 RMK A01 T01770147  RH  082%=      5-min Rain = 0
KES1 150504Z 18003KT 18/15 A299 RMK A01 T01770146  RH  082%=      5-min Rain = 0
KES1 150505Z 17004KT 18/14 A299 RMK A01 T01780141  RH  079%=      5-min Rain = 0
KES1 150506Z 16003KT 18/14 A299 RMK A01 T01840138  RH  075%=      5-min Rain = 0
KES1 150507Z 14005KT 19/14 A299 RMK A01 T01880144  RH  076%=      5-min Rain = 0
KES1 150508Z 13005KT 19/15 A299 RMK A01 T01860148  RH  078%=      5-min Rain = 0
KES1 150509Z 13006KT 18/15 A299 RMK A01 T01820146  RH  080%=      5-min Rain = 0
KES1 150510Z 14007KT 18/14 A299 RMK A01 T01810142  RH  078%=      5-min Rain = 0
KES1 150511Z 15007KT 18/14 A299 RMK A01 T01820141  RH  077%=      5-min Rain = 0
KES1 150512Z 15007KT 19/14 A299 RMK A01 T01850143  RH  076%=      5-min Rain = 0
KES1 150513Z 15007KT 19/14 A299 RMK A01 T01870142  RH  075%=      5-min Rain = 0
KES1 150514Z 15006KT 19/14 A299 RMK A01 T01880142  RH  075%=      5-min Rain = 0
KES1 150515Z 15007KT 19/14 A299 RMK A01 T01890143  RH  074%=      5-min Rain = 0
KES1 150516Z 14007KT 19/14 A299 RMK A01 T01890144  RH  075%=      5-min Rain = 0
KES1 150517Z 14009KT 19/15 A299 RMK A01 T01870145  RH  076%=      5-min Rain = 0
KES1 150518Z 14009KT 19/14 A299 RMK A01 T01870144  RH  076%=      5-min Rain = 0
KES1 150519Z 13010KT 19/14 A299 RMK A01 T01870142  RH  075%=      5-min Rain = 0
KES1 150520Z 14010KT 19/14 A299 RMK A01 T01910142  RH  073%=      5-min Rain = 0
KES1 150521Z 13009KT 19/14 A299 RMK A01 T01930142  RH  072%=      5-min Rain = 0
KES1 150522Z 14008KT 20/14 A299 RMK A01 T01950141  RH  071%=      5-min Rain = 0
KES1 150523Z 15008KT 20/14 A299 RMK A01 T01950142  RH  071%=      5-min Rain = 0
KES1 150524Z 15007KT 20/14 A299 RMK A01 T01950142  RH  071%=      5-min Rain = 0
KES1 150525Z 15008KT 20/14 A2991 RMK A01 T01950142  RH  071%=      5-min Rain = 0
KES1 150526Z 15008KT 20/14 A2991 RMK A01 T01950141  RH  071%=      5-min Rain = 0
KES1 150527Z 15009KT 20/14 A2991 RMK A01 T01950142  RH  071%=      5-min Rain = 0
KES1 150528Z 14008KT 20/14 A2991 RMK A01 T01950142  RH  071%=      5-min Rain = 0
KES1 150529Z 14010KT 20/14 A2991 RMK A01 T01950142  RH  071%=      5-min Rain = 0
KES1 150530Z 14010KT 19/14 A2991 RMK A01 T01940142  RH  072%=      5-min Rain = 0
KES1 150531Z 14010KT 19/14 A2991 RMK A01 T01940142  RH  072%=      5-min Rain = 0
KES1 150532Z 14008KT 20/14 A2991 RMK A01 T01950143  RH  072%=      5-min Rain = 0
KES1 150533Z 13008KT 19/14 A2991 RMK A01 T01940143  RH  072%=      5-min Rain = 0
KES1 150534Z 13007KT 19/14 A2991 RMK A01 T01930143  RH  073%=      5-min Rain = 0
KES1 150535Z 13007KT 19/14 A2992 RMK A01 T01930143  RH  073%=      5-min Rain = 0
KES1 150536Z 13008KT 19/14 A2992 RMK A01 T01930144  RH  073%=      5-min Rain = 0
KES1 150537Z 13008KT 19/14 A2992 RMK A01 T01920144  RH  074%=      5-min Rain = 0
KES1 150538Z 13008KT 19/14 A2992 RMK A01 T01920144  RH  074%=      5-min Rain = 0
KES1 150539Z 14009KT 19/15 A2992 RMK A01 T01920145  RH  074%=      5-min Rain = 0
KES1 150540Z 14008KT 19/15 A2992 RMK A01 T01920145  RH  074%=      5-min Rain = 0
KES1 150541Z 13007KT 19/15 A2992 RMK A01 T01910146  RH  075%=      5-min Rain = 0
KES1 150542Z 14008KT 19/15 A2992 RMK A01 T01910146  RH  075%=      5-min Rain = 0
KES1 150543Z 13008KT 19/15 A2992 RMK A01 T01910146  RH  075%=      5-min Rain = 0
KES1 150544Z 13008KT 19/15 A2992 RMK A01 T01910146  RH  075%=      5-min Rain = 0
KES1 150545Z 13007KT 19/15 A2993 RMK A01 T01910146  RH  075%=      5-min Rain = 0
KES1 150546Z 13008KT 19/15 A2992 RMK A01 T01910147  RH  076%=      5-min Rain = 0
KES1 150547Z 13009KT 19/15 A2992 RMK A01 T01900147  RH  076%=      5-min Rain = 0
KES1 150548Z 13009KT 19/15 A2992 RMK A01 T01900147  RH  076%=      5-min Rain = 0
KES1 150549Z 13009KT 19/15 A2992 RMK A01 T01900147  RH  076%=      5-min Rain = 0
KES1 150550Z 13009KT 19/15 A2993 RMK A01 T01900147  RH  076%=      5-min Rain = 0
KES1 150551Z 13010KT 19/15 A2993 RMK A01 T01900148  RH  076%=      5-min Rain = 0
KES1 150552Z 14010KT 19/15 A2993 RMK A01 T01900148  RH  077%=      5-min Rain = 0
KES1 150553Z 14010KT 19/15 A2993 RMK A01 T01900148  RH  077%=      5-min Rain = 0
KES1 150554Z 14010KT 19/15 A2993 RMK A01 T01900149  RH  077%=      5-min Rain = 0
KES1 150555Z 14009KT 19/15 A2993 RMK A01 T01900149  RH  077%=      5-min Rain = 0
KES1 150556Z 14008KT 19/15 A2993 RMK A01 T01900149  RH  077%=      5-min Rain = 0
KES1 150557Z 14006KT 19/15 A2993 RMK A01 T01900150  RH  078%=      5-min Rain = 0
KES1 150558Z 15007KT 19/15 A2993 RMK A01 T01890150  RH  078%=      5-min Rain = 0
KES1 150559Z 14009KT 19/15 A2993 RMK A01 T01880150  RH  078%=      5-min Rain = 0
KES1 150600Z 15007KT 19/15 A2993 RMK A01 T01870149  RH  078%=      5-min Rain = 0
KES1 150601Z 15009KT 19/15 A2992 RMK A01 T01880150  RH  079%=      5-min Rain = 0
KES1 150602Z 14009KT 19/15 A2992 RMK A01 T01870150  RH  079%=      5-min Rain = 0
KES1 150603Z 14009KT 19/15 A2992 RMK A01 T01870150  RH  079%=      5-min Rain = 0
KES1 150604Z 14008KT 19/15 A2992 RMK A01 T01870151  RH  079%=      5-min Rain = 0
KES1 150605Z 14008KT 19/15 A2992 RMK A01 T01870151  RH  080%=      5-min Rain = 0
KES1 150606Z 14009KT 19/15 A2992 RMK A01 T01860151  RH  080%=      5-min Rain = 0
KES1 150607Z 14009KT 19/15 A2992 RMK A01 T01850151  RH  081%=      5-min Rain = 0
KES1 150608Z 14009KT 19/15 A2992 RMK A01 T01850152  RH  081%=      5-min Rain = 0
KES1 150609Z 15008KT 19/15 A2992 RMK A01 T01850153  RH  081%=      5-min Rain = 0
KES1 150610Z 15008KT 19/15 A2992 RMK A01 T01850152  RH  082%=      5-min Rain = 0
KES1 150611Z 15008KT 18/15 A2992 RMK A01 T01840153  RH  082%=      5-min Rain = 0
KES1 150612Z 16008KT 18/15 A2992 RMK A01 T01830153  RH  082%=      5-min Rain = 0
KES1 150613Z 14008KT 18/15 A2992 RMK A01 T01830153  RH  082%=      5-min Rain = 0
KES1 150614Z 14008KT 18/15 A2992 RMK A01 T01830152  RH  082%=      5-min Rain = 0
KES1 150615Z 14008KT 18/15 A2992 RMK A01 T01830152  RH  082%=      5-min Rain = 0
KES1 150616Z 14008KT 18/15 A2992 RMK A01 T01830152  RH  082%=      5-min Rain = 0
KES1 150617Z 14009KT 18/15 A2992 RMK A01 T01830152  RH  082%=      5-min Rain = 0
KES1 150618Z 14009KT 18/15 A2992 RMK A01 T01830152  RH  082%=      5-min Rain = 0
KES1 150619Z 15009KT 18/15 A2992 RMK A01 T01830152  RH  082%=      5-min Rain = 0
KES1 150620Z 14008KT 18/15 A2992 RMK A01 T01830152  RH  082%=      5-min Rain = 0
KES1 150621Z 15008KT 18/15 A2992 RMK A01 T01830152  RH  082%=      5-min Rain = 0
KES1 150622Z 14007KT 18/15 A2992 RMK A01 T01830152  RH  082%=      5-min Rain = 0
KES1 150623Z 14009KT 18/15 A2992 RMK A01 T01830153  RH  083%=      5-min Rain = 0
KES1 150624Z 13009KT 18/15 A2992 RMK A01 T01830153  RH  083%=      5-min Rain = 0
KES1 150625Z 13008KT 18/15 A2992 RMK A01 T01830153  RH  082%=      5-min Rain = 0
KES1 150626Z 13009KT 18/15 A2992 RMK A01 T01830153  RH  083%=      5-min Rain = 0
KES1 150627Z 12009KT 18/15 A2991 RMK A01 T01830153  RH  083%=      5-min Rain = 0
KES1 150628Z 13009KT 18/15 A2991 RMK A01 T01820153  RH  083%=      5-min Rain = 0
KES1 150629Z 12007KT 18/15 A2991 RMK A01 T01820153  RH  083%=      5-min Rain = 0
KES1 150630Z 12007KT 18/15 A2991 RMK A01 T01820153  RH  083%=      5-min Rain = 0
KES1 150631Z 12008KT 18/15 A2991 RMK A01 T01820153  RH  084%=      5-min Rain = 0
KES1 150632Z 13007KT 18/15 A2991 RMK A01 T01820153  RH  083%=      5-min Rain = 0
KES1 150633Z 13007KT 18/15 A2991 RMK A01 T01820153  RH  083%=      5-min Rain = 0
KES1 150634Z 13007KT 18/15 A2991 RMK A01 T01820153  RH  083%=      5-min Rain = 0
KES1 150635Z 13007KT 18/15 A2991 RMK A01 T01820153  RH  083%=      5-min Rain = 0
KES1 150636Z 13007KT 18/15 A2991 RMK A01 T01810153  RH  083%=      5-min Rain = 0
KES1 150637Z 13007KT 18/15 A2991 RMK A01 T01820153  RH  083%=      5-min Rain = 0
KES1 150638Z 14007KT 18/15 A299 RMK A01 T01820153  RH  083%=      5-min Rain = 0
KES1 150639Z 13007KT 18/15 A299 RMK A01 T01820153  RH  084%=      5-min Rain = 0
KES1 150640Z 14007KT 18/15 A299 RMK A01 T01820153  RH  084%=      5-min Rain = 0
KES1 150641Z 14006KT 18/15 A299 RMK A01 T01820154  RH  084%=      5-min Rain = 0
KES1 150642Z 13007KT 18/15 A299 RMK A01 T01820153  RH  084%=      5-min Rain = 0
KES1 150643Z 13007KT 18/15 A299 RMK A01 T01810153  RH  083%=      5-min Rain = 0
KES1 150644Z 13006KT 18/15 A299 RMK A01 T01820153  RH  083%=      5-min Rain = 0
KES1 150645Z 13007KT 18/15 A299 RMK A01 T01820153  RH  083%=      5-min Rain = 0
KES1 150646Z 14007KT 18/15 A299 RMK A01 T01820153  RH  083%=      5-min Rain = 0
KES1 150647Z 13006KT 18/15 A299 RMK A01 T01820153  RH  083%=      5-min Rain = 0
KES1 150648Z 14006KT 18/15 A299 RMK A01 T01820154  RH  084%=      5-min Rain = 0
KES1 150649Z 14007KT 18/15 A299 RMK A01 T01810153  RH  084%=      5-min Rain = 0
KES1 150650Z 13007KT 18/15 A299 RMK A01 T01810153  RH  084%=      5-min Rain = 0
KES1 150651Z 13005KT 18/15 A299 RMK A01 T01810153  RH  084%=      5-min Rain = 0
KES1 150652Z 13005KT 18/15 A299 RMK A01 T01810154  RH  084%=      5-min Rain = 0
KES1 150653Z 14006KT 18/15 A299 RMK A01 T01800154  RH  084%=      5-min Rain = 0
KES1 150654Z 14005KT 18/15 A299 RMK A01 T01800153  RH  084%=      5-min Rain = 0
KES1 150655Z 15004KT 18/15 A299 RMK A01 T01800153  RH  084%=      5-min Rain = 0
KES1 150656Z 16003KT 18/15 A299 RMK A01 T01800153  RH  084%=      5-min Rain = 0
KES1 150657Z 14004KT 18/15 A299 RMK A01 T01800153  RH  084%=      5-min Rain = 0
KES1 150658Z 13004KT 18/15 A299 RMK A01 T01800153  RH  084%=      5-min Rain = 0
KES1 150659Z 14004KT 18/15 A299 RMK A01 T01800153  RH  084%=      5-min Rain = 0
KES1 150700Z 15004KT 18/15 A299 RMK A01 T01800153  RH  084%=      5-min Rain = 0
KES1 150701Z 15004KT 18/15 A299 RMK A01 T01800153  RH  085%=      5-min Rain = 0
KES1 150702Z 14004KT 18/15 A299 RMK A01 T01800154  RH  085%=      5-min Rain = 0
KES1 150703Z 15004KT 18/15 A299 RMK A01 T01790153  RH  085%=      5-min Rain = 0
KES1 150704Z 15005KT 18/15 A299 RMK A01 T01780153  RH  085%=      5-min Rain = 0
KES1 150705Z 16003KT 18/15 A299 RMK A01 T01780153  RH  085%=      5-min Rain = 0
KES1 150706Z 15004KT 18/15 A299 RMK A01 T01780153  RH  085%=      5-min Rain = 0
KES1 150707Z 16003KT 18/15 A299 RMK A01 T01780153  RH  085%=      5-min Rain = 0
KES1 150708Z 16003KT 18/15 A299 RMK A01 T01780153  RH  085%=      5-min Rain = 0
KES1 150709Z 17003KT 18/15 A299 RMK A01 T01790154  RH  085%=      5-min Rain = 0
KES1 150710Z 17005KT 18/15 A299 RMK A01 T01780153  RH  086%=      5-min Rain = 0
KES1 150711Z 17005KT 18/15 A299 RMK A01 T01780154  RH  086%=      5-min Rain = 0
KES1 150712Z 17005KT 18/15 A299 RMK A01 T01780154  RH  086%=      5-min Rain = 0
KES1 150713Z 16005KT 18/15 A299 RMK A01 T01780154  RH  086%=      5-min Rain = 0
KES1 150714Z 16005KT 18/15 A299 RMK A01 T01770153  RH  086%=      5-min Rain = 0
KES1 150715Z 16006KT 18/15 A299 RMK A01 T01770153  RH  086%=      5-min Rain = 0
KES1 150716Z 15006KT 18/15 A299 RMK A01 T01770153  RH  086%=      5-min Rain = 0
KES1 150717Z 15005KT 18/15 A299 RMK A01 T01770153  RH  086%=      5-min Rain = 0
KES1 150718Z 14005KT 18/15 A2989 RMK A01 T01770153  RH  086%=      5-min Rain = 0
KES1 150719Z 14006KT 18/15 A2989 RMK A01 T01770153  RH  086%=      5-min Rain = 0
KES1 150720Z 14005KT 18/15 A2989 RMK A01 T01770153  RH  086%=      5-min Rain = 0
KES1 150721Z 14006KT 18/15 A2989 RMK A01 T01770153  RH  086%=      5-min Rain = 0
KES1 150722Z 14005KT 18/15 A2989 RMK A01 T01760153  RH  086%=      5-min Rain = 0
KES1 150723Z 14005KT 18/15 A2989 RMK A01 T01760153  RH  086%=      5-min Rain = 0
KES1 150724Z 14004KT 18/15 A299 RMK A01 T01760153  RH  086%=      5-min Rain = 0
KES1 150725Z 16005KT 18/15 A299 RMK A01 T01760153  RH  086%=      5-min Rain = 0
KES1 150726Z 16004KT 18/15 A299 RMK A01 T01760152  RH  086%=      5-min Rain = 0
KES1 150727Z 15003KT 18/15 A299 RMK A01 T01770152  RH  085%=      5-min Rain = 0
KES1 150728Z 14003KT 18/15 A299 RMK A01 T01760152  RH  085%=      5-min Rain = 0
KES1 150729Z 13003KT 18/15 A299 RMK A01 T01760151  RH  085%=      5-min Rain = 0
KES1 150730Z 13005KT 18/15 A299 RMK A01 T01760151  RH  085%=      5-min Rain = 0
KES1 150731Z 13005KT 18/15 A299 RMK A01 T01760152  RH  086%=      5-min Rain = 0
KES1 150732Z 12005KT 18/15 A299 RMK A01 T01760152  RH  086%=      5-min Rain = 0
KES1 150733Z 12004KT 18/15 A2989 RMK A01 T01750152  RH  086%=      5-min Rain = 0
KES1 150734Z 12004KT 18/15 A2989 RMK A01 T01750152  RH  086%=      5-min Rain = 0
KES1 150735Z 13004KT 18/15 A299 RMK A01 T01750152  RH  086%=      5-min Rain = 0
KES1 150736Z 13003KT 18/15 A299 RMK A01 T01750152  RH  087%=      5-min Rain = 0
KES1 150737Z 12003KT 17/15 A2989 RMK A01 T01740152  RH  087%=      5-min Rain = 0
KES1 150738Z 13003KT 17/15 A2989 RMK A01 T01740151  RH  086%=      5-min Rain = 0
KES1 150739Z 13003KT 18/15 A2989 RMK A01 T01750151  RH  086%=      5-min Rain = 0
KES1 150740Z 15002KT 18/15 A2989 RMK A01 T01750151  RH  086%=      5-min Rain = 0
KES1 150741Z 15002KT 18/15 A2989 RMK A01 T01750151  RH  086%=      5-min Rain = 0
KES1 150742Z 13001KT 18/15 A2989 RMK A01 T01760152  RH  086%=      5-min Rain = 0
KES1 150743Z 10001KT 18/15 A2989 RMK A01 T01760152  RH  086%=      5-min Rain = 0
KES1 150744Z 09002KT 18/15 A2989 RMK A01 T01760151  RH  086%=      5-min Rain = 0
KES1 150745Z 07002KT 18/15 A2989 RMK A01 T01760152  RH  086%=      5-min Rain = 0
KES1 150746Z 05002KT 18/15 A2989 RMK A01 T01750151  RH  086%=      5-min Rain = 0
KES1 150747Z 06002KT 18/15 A2989 RMK A01 T01750151  RH  086%=      5-min Rain = 0
KES1 150748Z 05002KT 18/15 A2989 RMK A01 T01750151  RH  086%=      5-min Rain = 0
KES1 150749Z 05001KT 17/15 A2989 RMK A01 T01740151  RH  087%=      5-min Rain = 0
KES1 150750Z 04001KT 17/15 A2989 RMK A01 T01730152  RH  087%=      5-min Rain = 0
KES1 150751Z 04000KT 17/15 A2989 RMK A01 T01730152  RH  088%=      5-min Rain = 0
KES1 150752Z 34000KT 17/15 A2989 RMK A01 T01720152  RH  088%=      5-min Rain = 0
KES1 150753Z 34000KT 17/15 A2989 RMK A01 T01720153  RH  089%=      5-min Rain = 0
KES1 150754Z 34000KT 17/15 A299 RMK A01 T01720154  RH  089%=      5-min Rain = 0
KES1 150755Z 00000KT 17/15 A299 RMK A01 T01710153  RH  089%=      5-min Rain = 0
KES1 150756Z 32000KT 17/15 A299 RMK A01 T01700152  RH  089%=      5-min Rain = 0
KES1 150757Z 31001KT 17/15 A299 RMK A01 T01690152  RH  090%=      5-min Rain = 0
KES1 150758Z 31000KT 17/15 A299 RMK A01 T01680152  RH  090%=      5-min Rain = 0
KES1 150759Z 27000KT 17/15 A299 RMK A01 T01680152  RH  090%=      5-min Rain = 0
KES1 150800Z 25001KT 17/15 A299 RMK A01 T01670152  RH  090%=      5-min Rain = 0
KES1 150801Z 25001KT 17/15 A299 RMK A01 T01660151  RH  091%=      5-min Rain = 0
KES1 150802Z 25002KT 17/15 A2989 RMK A01 T01660152  RH  091%=      5-min Rain = 0
KES1 150803Z 25002KT 17/15 A2989 RMK A01 T01650152  RH  092%=      5-min Rain = 0
KES1 150804Z 25002KT 17/15 A2989 RMK A01 T01650152  RH  092%=      5-min Rain = 0
KES1 150805Z 24002KT 16/15 A2989 RMK A01 T01640152  RH  092%=      5-min Rain = 0
KES1 150806Z 23003KT 16/15 A2989 RMK A01 T01640152  RH  092%=      5-min Rain = 0
KES1 150807Z 24004KT 16/15 A2989 RMK A01 T01640152  RH  092%=      5-min Rain = 0
KES1 150808Z 24004KT 16/15 A2989 RMK A01 T01640152  RH  093%=      5-min Rain = 0
KES1 150809Z 24003KT 16/15 A2989 RMK A01 T01640152  RH  093%=      5-min Rain = 0
KES1 150810Z 24003KT 16/15 A2989 RMK A01 T01640152  RH  093%=      5-min Rain = 0
KES1 150811Z 23003KT 16/15 A2989 RMK A01 T01640152  RH  093%=      5-min Rain = 0
KES1 150812Z 22004KT 16/15 A2989 RMK A01 T01640152  RH  092%=      5-min Rain = 0
KES1 150813Z 23003KT 16/15 A2989 RMK A01 T01640152  RH  092%=      5-min Rain = 0
KES1 150814Z 22004KT 17/15 A2989 RMK A01 T01650152  RH  092%=      5-min Rain = 0
KES1 150815Z 21003KT 17/15 A2989 RMK A01 T01650152  RH  092%=      5-min Rain = 0
KES1 150816Z 21003KT 17/15 A2989 RMK A01 T01650151  RH  091%=      5-min Rain = 0
KES1 150817Z 22004KT 17/15 A299 RMK A01 T01660151  RH  091%=      5-min Rain = 0
KES1 150818Z 22003KT 17/15 A299 RMK A01 T01650151  RH  091%=      5-min Rain = 0
KES1 150819Z 22003KT 17/15 A299 RMK A01 T01660151  RH  091%=      5-min Rain = 0
KES1 150820Z 23002KT 17/15 A299 RMK A01 T01660150  RH  090%=      5-min Rain = 0
KES1 150821Z 23002KT 17/15 A299 RMK A01 T01660150  RH  090%=      5-min Rain = 0
KES1 150822Z 25002KT 17/15 A299 RMK A01 T01660150  RH  090%=      5-min Rain = 0
KES1 150823Z 26003KT 17/15 A299 RMK A01 T01660150  RH  090%=      5-min Rain = 0
KES1 150824Z 26003KT 17/15 A299 RMK A01 T01660150  RH  090%=      5-min Rain = 0
KES1 150825Z 26002KT 17/15 A299 RMK A01 T01660150  RH  090%=      5-min Rain = 0
KES1 150826Z 25002KT 17/15 A299 RMK A01 T01670151  RH  090%=      5-min Rain = 0
KES1 150827Z 24002KT 17/15 A299 RMK A01 T01660151  RH  090%=      5-min Rain = 0
KES1 150828Z 24001KT 17/15 A299 RMK A01 T01660150  RH  090%=      5-min Rain = 0
KES1 150829Z 24001KT 17/15 A299 RMK A01 T01660150  RH  090%=      5-min Rain = 0
KES1 150830Z 24001KT 17/15 A299 RMK A01 T01660150  RH  090%=      5-min Rain = 0
KES1 150831Z 26002KT 17/15 A299 RMK A01 T01660151  RH  091%=      5-min Rain = 0
KES1 150832Z 27002KT 17/15 A299 RMK A01 T01660151  RH  091%=      5-min Rain = 0
KES1 150833Z 27002KT 17/15 A299 RMK A01 T01660151  RH  091%=      5-min Rain = 0
KES1 150834Z 27002KT 17/15 A299 RMK A01 T01660151  RH  091%=      5-min Rain = 0
KES1 150835Z 27001KT 17/15 A299 RMK A01 T01660151  RH  091%=      5-min Rain = 0
KES1 150836Z 27001KT 17/15 A299 RMK A01 T01660151  RH  091%=      5-min Rain = 0
KES1 150837Z 27000KT 17/15 A299 RMK A01 T01670151  RH  090%=      5-min Rain = 0
KES1 150838Z 27000KT 17/15 A299 RMK A01 T01670151  RH  090%=      5-min Rain = 0
KES1 150839Z 00000KT 17/15 A299 RMK A01 T01670151  RH  090%=      5-min Rain = 0
KES1 150840Z 00000KT 17/15 A299 RMK A01 T01650151  RH  091%=      5-min Rain = 0
KES1 150841Z 27000KT 16/15 A2989 RMK A01 T01630150  RH  091%=      5-min Rain = 0
KES1 150842Z 00000KT 16/15 A2989 RMK A01 T01620149  RH  092%=      5-min Rain = 0
KES1 150843Z 00000KT 16/15 A2989 RMK A01 T01610149  RH  092%=      5-min Rain = 0
KES1 150844Z 00000KT 16/15 A2989 RMK A01 T01600149  RH  093%=      5-min Rain = 0
KES1 150845Z 00000KT 16/15 A2989 RMK A01 T01600150  RH  093%=      5-min Rain = 0
KES1 150846Z 00000KT 16/15 A2989 RMK A01 T01600150  RH  094%=      5-min Rain = 0
KES1 150847Z 02000KT 16/15 A2989 RMK A01 T01610150  RH  093%=      5-min Rain = 0
KES1 150848Z 02001KT 16/15 A2989 RMK A01 T01610150  RH  093%=      5-min Rain = 0
KES1 150849Z 36002KT 16/15 A2989 RMK A01 T01610151  RH  094%=      5-min Rain = 0
KES1 150850Z 35001KT 16/15 A2989 RMK A01 T01620152  RH  094%=      5-min Rain = 0
KES1 150851Z 34002KT 16/15 A2989 RMK A01 T01620152  RH  094%=      5-min Rain = 0
KES1 150852Z 36002KT 16/15 A2989 RMK A01 T01620153  RH  094%=      5-min Rain = 0
KES1 150853Z 00001KT 16/15 A2989 RMK A01 T01620153  RH  094%=      5-min Rain = 0
KES1 150854Z 31001KT 16/15 A2989 RMK A01 T01630153  RH  094%=      5-min Rain = 0
KES1 150855Z 30002KT 16/15 A2989 RMK A01 T01620152  RH  093%=      5-min Rain = 0
KES1 150856Z 32002KT 16/15 A2989 RMK A01 T01620151  RH  093%=      5-min Rain = 0
KES1 150857Z 33002KT 16/15 A2989 RMK A01 T01610151  RH  094%=      5-min Rain = 0
KES1 150858Z 33002KT 16/15 A2989 RMK A01 T01610152  RH  094%=      5-min Rain = 0
KES1 150859Z 33002KT 16/15 A2989 RMK A01 T01610152  RH  094%=      5-min Rain = 0
KES1 150900Z 33002KT 16/15 A2989 RMK A01 T01610152  RH  094%=      5-min Rain = 0
KES1 150901Z 33002KT 16/15 A2989 RMK A01 T01610152  RH  094%=      5-min Rain = 0
KES1 150902Z 33002KT 16/15 A2989 RMK A01 T01610151  RH  094%=      5-min Rain = 0
KES1 150903Z 33002KT 16/15 A2989 RMK A01 T01620152  RH  094%=      5-min Rain = 0
KES1 150904Z 33002KT 16/15 A2989 RMK A01 T01620152  RH  094%=      5-min Rain = 0
KES1 150905Z 32002KT 16/15 A2989 RMK A01 T01620153  RH  094%=      5-min Rain = 0
KES1 150906Z 31002KT 16/15 A2989 RMK A01 T01610153  RH  094%=      5-min Rain = 0
KES1 150907Z 31002KT 16/15 A2989 RMK A01 T01620152  RH  094%=      5-min Rain = 0
KES1 150908Z 31002KT 16/15 A2989 RMK A01 T01620152  RH  094%=      5-min Rain = 0
KES1 150909Z 31002KT 16/15 A2989 RMK A01 T01610152  RH  094%=      5-min Rain = 0
KES1 150910Z 31002KT 16/15 A2989 RMK A01 T01610153  RH  094%=      5-min Rain = 0
KES1 150911Z 31001KT 16/15 A2989 RMK A01 T01610153  RH  094%=      5-min Rain = 0
KES1 150912Z 31001KT 16/15 A2989 RMK A01 T01610152  RH  094%=      5-min Rain = 0
KES1 150913Z 32002KT 16/15 A2989 RMK A01 T01600151  RH  094%=      5-min Rain = 0
KES1 150914Z 32002KT 16/15 A2989 RMK A01 T01600152  RH  095%=      5-min Rain = 0
KES1 150915Z 32002KT 16/15 A2989 RMK A01 T01600152  RH  095%=      5-min Rain = 0
KES1 150916Z 32003KT 16/15 A2989 RMK A01 T01600153  RH  095%=      5-min Rain = 0
KES1 150917Z 33002KT 16/15 A2989 RMK A01 T01610154  RH  096%=      5-min Rain = 0
KES1 150918Z 33002KT 16/15 A2989 RMK A01 T01610154  RH  096%=      5-min Rain = 0
KES1 150919Z 35002KT 16/15 A2989 RMK A01 T01610154  RH  095%=      5-min Rain = 0
KES1 150920Z 00001KT 16/15 A2989 RMK A01 T01610152  RH  095%=      5-min Rain = 0
KES1 150921Z 00002KT 16/15 A2989 RMK A01 T01600151  RH  094%=      5-min Rain = 0
KES1 150922Z 01002KT 16/15 A2989 RMK A01 T01590150  RH  094%=      5-min Rain = 0
KES1 150923Z 01002KT 16/15 A2989 RMK A01 T01590151  RH  095%=      5-min Rain = 0
KES1 150924Z 01002KT 16/15 A2989 RMK A01 T01580150  RH  095%=      5-min Rain = 0
KES1 150925Z 01002KT 16/15 A2989 RMK A01 T01580149  RH  095%=      5-min Rain = 0
KES1 150926Z 01002KT 16/15 A2989 RMK A01 T01570149  RH  095%=      5-min Rain = 0
KES1 150927Z 35002KT 16/15 A2989 RMK A01 T01580151  RH  096%=      5-min Rain = 0
KES1 150928Z 35001KT 16/15 A2989 RMK A01 T01570151  RH  096%=      5-min Rain = 0
KES1 150929Z 35001KT 16/15 A2989 RMK A01 T01580152  RH  096%=      5-min Rain = 0
KES1 150930Z 35000KT 16/15 A2989 RMK A01 T01580153  RH  097%=      5-min Rain = 0
KES1 150931Z 35000KT 16/15 A2989 RMK A01 T01580152  RH  096%=      5-min Rain = 0
KES1 150932Z 35001KT 16/15 A2988 RMK A01 T01590152  RH  096%=      5-min Rain = 0
KES1 150933Z 35002KT 16/15 A2988 RMK A01 T01590152  RH  096%=      5-min Rain = 0
KES1 150934Z 30001KT 16/15 A2989 RMK A01 T01590153  RH  096%=      5-min Rain = 0
KES1 150935Z 26001KT 16/15 A2989 RMK A01 T01590152  RH  096%=      5-min Rain = 0
KES1 150936Z 00000KT 16/15 A2988 RMK A01 T01590152  RH  096%=      5-min Rain = 0
KES1 150937Z 32001KT 16/15 A2988 RMK A01 T01590152  RH  096%=      5-min Rain = 0
KES1 150938Z 32000KT 16/15 A2988 RMK A01 T01590152  RH  096%=      5-min Rain = 0
KES1 150939Z 32001KT 16/15 A2988 RMK A01 T01590152  RH  096%=      5-min Rain = 0
KES1 150940Z 32000KT 16/15 A2988 RMK A01 T01590154  RH  096%=      5-min Rain = 0
KES1 150941Z 00000KT 16/15 A2988 RMK A01 T01600154  RH  096%=      5-min Rain = 0
KES1 150942Z 00000KT 16/15 A2988 RMK A01 T01590153  RH  096%=      5-min Rain = 0
KES1 150943Z 00000KT 16/15 A2988 RMK A01 T01590151  RH  095%=      5-min Rain = 0
KES1 150944Z 00000KT 16/15 A2988 RMK A01 T01590152  RH  095%=      5-min Rain = 0
KES1 150945Z 00000KT 16/15 A2988 RMK A01 T01580151  RH  096%=      5-min Rain = 0
KES1 150946Z 32000KT 16/15 A2988 RMK A01 T01580152  RH  096%=      5-min Rain = 0
KES1 150947Z 00001KT 16/15 A2988 RMK A01 T01590153  RH  096%=      5-min Rain = 0
KES1 150948Z 01002KT 16/16 A2988 RMK A01 T01600155  RH  097%=      5-min Rain = 0
KES1 150949Z 33001KT 16/16 A2988 RMK A01 T01610155  RH  096%=      5-min Rain = 0
KES1 150950Z 33002KT 16/16 A2988 RMK A01 T01610155  RH  096%=      5-min Rain = 0
KES1 150951Z 34002KT 16/16 A2988 RMK A01 T01620156  RH  096%=      5-min Rain = 0
KES1 150952Z 34002KT 16/16 A2988 RMK A01 T01620156  RH  096%=      5-min Rain = 0
KES1 150953Z 34002KT 16/16 A2988 RMK A01 T01630157  RH  096%=      5-min Rain = 0
KES1 150954Z 34002KT 16/16 A2988 RMK A01 T01630157  RH  096%=      5-min Rain = 0
KES1 150955Z 34003KT 16/16 A2988 RMK A01 T01630157  RH  096%=      5-min Rain = 0
KES1 150956Z 34003KT 16/16 A2989 RMK A01 T01640158  RH  097%=      5-min Rain = 0
KES1 150957Z 35003KT 16/16 A2989 RMK A01 T01640158  RH  096%=      5-min Rain = 0
KES1 150958Z 35003KT 16/16 A2989 RMK A01 T01640159  RH  096%=      5-min Rain = 0
KES1 150959Z 36003KT 16/16 A2989 RMK A01 T01640158  RH  096%=      5-min Rain = 0
KES1 151000Z 01003KT 16/16 A2989 RMK A01 T01640158  RH  096%=      5-min Rain = 0
KES1 151001Z 01003KT 16/16 A2989 RMK A01 T01640156  RH  095%=      5-min Rain = 0
KES1 151002Z 01003KT 16/15 A2989 RMK A01 T01630154  RH  094%=      5-min Rain = 0
KES1 151003Z 02005KT 16/15 A2989 RMK A01 T01620152  RH  094%=      5-min Rain = 0
KES1 151004Z 03005KT 16/15 A2989 RMK A01 T01600151  RH  094%=      5-min Rain = 0
KES1 151005Z 04005KT 16/15 A2989 RMK A01 T01590151  RH  095%=      5-min Rain = 0
KES1 151006Z 04005KT 16/15 A299 RMK A01 T01580150  RH  095%=      5-min Rain = 0
KES1 151007Z 05006KT 16/15 A299 RMK A01 T01580152  RH  096%=      5-min Rain = 0
KES1 151008Z 05006KT 16/15 A299 RMK A01 T01590153  RH  096%=      5-min Rain = 0
KES1 151009Z 05007KT 16/15 A299 RMK A01 T01600154  RH  096%=      5-min Rain = 0
KES1 151010Z 05008KT 16/16 A299 RMK A01 T01610155  RH  096%=      5-min Rain = 0
KES1 151011Z 05008KT 16/16 A299 RMK A01 T01620155  RH  096%=      5-min Rain = 0
KES1 151012Z 06007KT 16/16 A299 RMK A01 T01620155  RH  095%=      5-min Rain = 0
KES1 151013Z 05008KT 16/16 A299 RMK A01 T01620155  RH  095%=      5-min Rain = 0
KES1 151014Z 05008KT 16/16 A299 RMK A01 T01620155  RH  096%=      5-min Rain = 0
KES1 151015Z 06008KT 16/16 A299 RMK A01 T01620156  RH  096%=      5-min Rain = 0
KES1 151016Z 06008KT 16/16 A299 RMK A01 T01620156  RH  096%=      5-min Rain = 0
KES1 151017Z 06008KT 16/16 A299 RMK A01 T01620156  RH  096%=      5-min Rain = 0
KES1 151018Z 07008KT 16/16 A299 RMK A01 T01630157  RH  096%=      5-min Rain = 0
KES1 151019Z 07008KT 16/16 A299 RMK A01 T01630156  RH  096%=      5-min Rain = 0
KES1 151020Z 07008KT 16/16 A299 RMK A01 T01640156  RH  095%=      5-min Rain = 0
KES1 151021Z 08008KT 17/16 A299 RMK A01 T01650155  RH  094%=      5-min Rain = 0
KES1 151022Z 09007KT 17/16 A299 RMK A01 T01650155  RH  093%=      5-min Rain = 0
KES1 151023Z 08006KT 17/15 A299 RMK A01 T01660154  RH  093%=      5-min Rain = 0
KES1 151024Z 08006KT 17/15 A299 RMK A01 T01660154  RH  093%=      5-min Rain = 0
KES1 151025Z 08007KT 17/15 A299 RMK A01 T01660154  RH  092%=      5-min Rain = 0
KES1 151026Z 07007KT 17/15 A299 RMK A01 T01660153  RH  092%=      5-min Rain = 0
KES1 151027Z 06008KT 17/15 A299 RMK A01 T01660152  RH  092%=      5-min Rain = 0
KES1 151028Z 06010KT 17/15 A299 RMK A01 T01660151  RH  091%=      5-min Rain = 0
KES1 151029Z 05010KT 17/15 A299 RMK A01 T01670151  RH  090%=      5-min Rain = 0
KES1 151030Z 07008KT 17/15 A299 RMK A01 T01670151  RH  090%=      5-min Rain = 0
KES1 151031Z 06009KT 17/15 A299 RMK A01 T01670152  RH  091%=      5-min Rain = 0
KES1 151032Z 07010KT 17/15 A299 RMK A01 T01660151  RH  091%=      5-min Rain = 0
KES1 151033Z 07010KT 17/15 A299 RMK A01 T01660151  RH  091%=      5-min Rain = 0
KES1 151034Z 06009KT 17/15 A299 RMK A01 T01660152  RH  091%=      5-min Rain = 0
KES1 151035Z 06008KT 17/15 A299 RMK A01 T01650151  RH  092%=      5-min Rain = 0
KES1 151036Z 07008KT 17/15 A299 RMK A01 T01650152  RH  092%=      5-min Rain = 0
KES1 151037Z 07007KT 16/15 A299 RMK A01 T01640151  RH  092%=      5-min Rain = 0
KES1 151038Z 08009KT 16/15 A299 RMK A01 T01640152  RH  092%=      5-min Rain = 0
KES1 151039Z 07009KT 17/15 A299 RMK A01 T01650152  RH  092%=      5-min Rain = 0
KES1 151040Z 07010KT 17/15 A299 RMK A01 T01660153  RH  092%=      5-min Rain = 0
KES1 151041Z 07008KT 17/15 A299 RMK A01 T01670153  RH  091%=      5-min Rain = 0
KES1 151042Z 08007KT 17/15 A299 RMK A01 T01670153  RH  091%=      5-min Rain = 0
KES1 151043Z 08007KT 17/15 A299 RMK A01 T01670153  RH  091%=      5-min Rain = 0
KES1 151044Z 08008KT 17/15 A299 RMK A01 T01670153  RH  091%=      5-min Rain = 0
KES1 151045Z 08007KT 17/15 A299 RMK A01 T01670153  RH  091%=      5-min Rain = 0
KES1 151046Z 08009KT 17/15 A299 RMK A01 T01670153  RH  091%=      5-min Rain = 0
KES1 151047Z 08010KT 17/15 A299 RMK A01 T01660153  RH  092%=      5-min Rain = 0
KES1 151048Z 08009KT 17/15 A299 RMK A01 T01670153  RH  092%=      5-min Rain = 0
KES1 151049Z 08008KT 17/15 A299 RMK A01 T01670154  RH  092%=      5-min Rain = 0
KES1 151050Z 08009KT 17/15 A299 RMK A01 T01660153  RH  092%=      5-min Rain = 0
KES1 151051Z 07009KT 17/15 A2991 RMK A01 T01670154  RH  092%=      5-min Rain = 0
KES1 151052Z 07008KT 17/15 A2991 RMK A01 T01670154  RH  092%=      5-min Rain = 0
KES1 151053Z 07009KT 17/15 A2991 RMK A01 T01670154  RH  092%=      5-min Rain = 0
KES1 151054Z 08009KT 17/15 A2991 RMK A01 T01670154  RH  092%=      5-min Rain = 0
KES1 151055Z 07009KT 17/15 A2991 RMK A01 T01670154  RH  092%=      5-min Rain = 0
KES1 151056Z 07009KT 17/16 A2991 RMK A01 T01680155  RH  092%=      5-min Rain = 0
KES1 151057Z 07009KT 17/15 A2991 RMK A01 T01670154  RH  092%=      5-min Rain = 0
KES1 151058Z 07009KT 17/16 A2991 RMK A01 T01680155  RH  092%=      5-min Rain = 0
KES1 151059Z 07008KT 17/16 A2991 RMK A01 T01680155  RH  092%=      5-min Rain = 0
KES1 151100Z 07009KT 17/16 A2991 RMK A01 T01680155  RH  092%=      5-min Rain = 0
KES1 151101Z 07009KT 17/16 A2991 RMK A01 T01680155  RH  092%=      5-min Rain = 0
KES1 151102Z 07009KT 17/16 A2991 RMK A01 T01680155  RH  092%=      5-min Rain = 0
KES1 151103Z 07010KT 17/16 A2991 RMK A01 T01680155  RH  092%=      5-min Rain = 0
KES1 151104Z 07010KT 17/16 A2991 RMK A01 T01680155  RH  092%=      5-min Rain = 0
KES1 151105Z 07010KT 17/16 A2991 RMK A01 T01680155  RH  092%=      5-min Rain = 0
KES1 151106Z 07010KT 17/16 A2991 RMK A01 T01680155  RH  092%=      5-min Rain = 0
KES1 151107Z 08009KT 17/16 A2991 RMK A01 T01680155  RH  092%=      5-min Rain = 0
KES1 151108Z 09009KT 17/16 A2991 RMK A01 T01680155  RH  092%=      5-min Rain = 0
KES1 151109Z 08009KT 17/16 A2991 RMK A01 T01680155  RH  092%=      5-min Rain = 0
KES1 151110Z 09009KT 17/16 A2991 RMK A01 T01680155  RH  092%=      5-min Rain = 0
KES1 151111Z 08009KT 17/16 A2991 RMK A01 T01680155  RH  092%=      5-min Rain = 0
KES1 151112Z 09008KT 17/16 A2991 RMK A01 T01690155  RH  092%=      5-min Rain = 0
KES1 151113Z 09008KT 17/16 A2991 RMK A01 T01690155  RH  092%=      5-min Rain = 0
KES1 151114Z 08008KT 17/16 A2991 RMK A01 T01690156  RH  092%=      5-min Rain = 0
KES1 151115Z 08007KT 17/16 A2991 RMK A01 T01690155  RH  092%=      5-min Rain = 0
KES1 151116Z 09006KT 17/16 A2991 RMK A01 T01690155  RH  091%=      5-min Rain = 0
KES1 151117Z 08006KT 17/16 A2991 RMK A01 T01690155  RH  091%=      5-min Rain = 0
KES1 151118Z 08007KT 17/16 A2991 RMK A01 T01690155  RH  091%=      5-min Rain = 0
KES1 151119Z 08008KT 17/16 A2991 RMK A01 T01690155  RH  092%=      5-min Rain = 0
KES1 151120Z 08008KT 17/16 A2991 RMK A01 T01690155  RH  092%=      5-min Rain = 0
KES1 151121Z 08008KT 17/16 A2991 RMK A01 T01690155  RH  092%=      5-min Rain = 0
KES1 151122Z 08008KT 17/16 A2991 RMK A01 T01690156  RH  092%=      5-min Rain = 0
KES1 151123Z 08008KT 17/16 A2992 RMK A01 T01690156  RH  092%=      5-min Rain = 0
KES1 151124Z 08008KT 17/16 A2992 RMK A01 T01680155  RH  092%=      5-min Rain = 0
KES1 151125Z 08008KT 17/16 A2992 RMK A01 T01680155  RH  092%=      5-min Rain = 0
KES1 151126Z 08007KT 17/16 A2992 RMK A01 T01680155  RH  092%=      5-min Rain = 0
KES1 151127Z 08007KT 17/16 A2992 RMK A01 T01680155  RH  092%=      5-min Rain = 0
KES1 151128Z 08007KT 17/16 A2992 RMK A01 T01680155  RH  092%=      5-min Rain = 0
KES1 151129Z 08007KT 17/16 A2992 RMK A01 T01680155  RH  092%=      5-min Rain = 0
KES1 151130Z 08007KT 17/16 A2992 RMK A01 T01680156  RH  092%=      5-min Rain = 0
KES1 151131Z 08007KT 17/16 A2992 RMK A01 T01680155  RH  092%=      5-min Rain = 0
KES1 151132Z 08007KT 17/16 A2992 RMK A01 T01680155  RH  092%=      5-min Rain = 0
KES1 151133Z 09007KT 17/16 A2992 RMK A01 T01680155  RH  092%=      5-min Rain = 0
KES1 151134Z 09007KT 17/16 A2992 RMK A01 T01680156  RH  092%=      5-min Rain = 0
KES1 151135Z 09006KT 17/16 A2992 RMK A01 T01680156  RH  092%=      5-min Rain = 0
KES1 151136Z 10006KT 17/16 A2992 RMK A01 T01680155  RH  092%=      5-min Rain = 0
KES1 151137Z 09006KT 17/16 A2992 RMK A01 T01680155  RH  092%=      5-min Rain = 0
KES1 151138Z 09006KT 17/16 A2992 RMK A01 T01680156  RH  092%=      5-min Rain = 0
KES1 151139Z 09007KT 17/16 A2992 RMK A01 T01680156  RH  092%=      5-min Rain = 0
KES1 151140Z 08007KT 17/16 A2992 RMK A01 T01680156  RH  092%=      5-min Rain = 0
KES1 151141Z 08007KT 17/16 A2993 RMK A01 T01680156  RH  092%=      5-min Rain = 0
KES1 151142Z 07007KT 17/16 A2993 RMK A01 T01680156  RH  092%=      5-min Rain = 0
KES1 151143Z 06007KT 17/16 A2993 RMK A01 T01680156  RH  093%=      5-min Rain = 0
KES1 151144Z 05007KT 17/16 A2993 RMK A01 T01680156  RH  093%=      5-min Rain = 0
KES1 151145Z 05007KT 17/16 A2994 RMK A01 T01670156  RH  093%=      5-min Rain = 0
KES1 151146Z 04008KT 17/16 A2994 RMK A01 T01670156  RH  093%=      5-min Rain = 0
KES1 151147Z 04008KT 17/16 A2994 RMK A01 T01670156  RH  093%=      5-min Rain = 0
KES1 151148Z 04007KT 17/16 A2994 RMK A01 T01670156  RH  093%=      5-min Rain = 0
KES1 151149Z 03006KT 17/16 A2994 RMK A01 T01670156  RH  093%=      5-min Rain = 0
KES1 151150Z 03005KT 17/16 A2994 RMK A01 T01670156  RH  093%=      5-min Rain = 0
KES1 151151Z 04004KT 17/16 A2994 RMK A01 T01670156  RH  093%=      5-min Rain = 0
KES1 151152Z 06004KT 17/16 A2994 RMK A01 T01670156  RH  093%=      5-min Rain = 0
KES1 151153Z 06004KT 17/16 A2994 RMK A01 T01670156  RH  093%=      5-min Rain = 0
KES1 151154Z 06003KT 17/16 A2994 RMK A01 T01670157  RH  093%=      5-min Rain = 0
KES1 151155Z 08003KT 17/16 A2994 RMK A01 T01670157  RH  094%=      5-min Rain = 0
KES1 151156Z 06004KT 17/16 A2994 RMK A01 T01670156  RH  094%=      5-min Rain = 0
KES1 151157Z 07005KT 17/16 A2994 RMK A01 T01670157  RH  094%=      5-min Rain = 0
KES1 151158Z 07006KT 17/16 A2994 RMK A01 T01660157  RH  094%=      5-min Rain = 0
KES1 151159Z 06007KT 17/16 A2994 RMK A01 T01660157  RH  094%=      5-min Rain = 0
KES1 151200Z 06007KT 17/16 A2994 RMK A01 T01670157  RH  094%=      5-min Rain = 0
KES1 151201Z 06007KT 17/16 A2994 RMK A01 T01670157  RH  094%=      5-min Rain = 0
KES1 151202Z 06008KT 17/16 A2994 RMK A01 T01660157  RH  094%=      5-min Rain = 0
KES1 151203Z 06008KT 17/16 A2994 RMK A01 T01670157  RH  094%=      5-min Rain = 0
KES1 151204Z 06007KT 17/16 A2994 RMK A01 T01660157  RH  094%=      5-min Rain = 0
KES1 151205Z 07007KT 17/16 A2994 RMK A01 T01660157  RH  094%=      5-min Rain = 0
KES1 151206Z 07007KT 17/16 A2994 RMK A01 T01660157  RH  094%=      5-min Rain = 0
KES1 151207Z 07007KT 17/16 A2994 RMK A01 T01660157  RH  094%=      5-min Rain = 0
KES1 151208Z 07005KT 17/16 A2994 RMK A01 T01670158  RH  094%=      5-min Rain = 0
KES1 151209Z 07005KT 17/16 A2994 RMK A01 T01670158  RH  094%=      5-min Rain = 0
KES1 151210Z 08004KT 17/16 A2994 RMK A01 T01670158  RH  094%=      5-min Rain = 0
KES1 151211Z 08004KT 17/16 A2994 RMK A01 T01670157  RH  094%=      5-min Rain = 0
KES1 151212Z 08004KT 17/16 A2994 RMK A01 T01670158  RH  094%=      5-min Rain = 0
KES1 151213Z 07005KT 17/16 A2995 RMK A01 T01680158  RH  094%=      5-min Rain = 0
KES1 151214Z 08005KT 17/16 A2995 RMK A01 T01670158  RH  094%=      5-min Rain = 0
KES1 151215Z 08005KT 17/16 A2995 RMK A01 T01680158  RH  094%=      5-min Rain = 0
KES1 151216Z 06005KT 17/16 A2995 RMK A01 T01680158  RH  094%=      5-min Rain = 0
KES1 151217Z 06005KT 17/16 A2995 RMK A01 T01680158  RH  094%=      5-min Rain = 0
KES1 151218Z 05006KT 17/16 A2995 RMK A01 T01680158  RH  094%=      5-min Rain = 0
KES1 151219Z 06006KT 17/16 A2995 RMK A01 T01680158  RH  094%=      5-min Rain = 0
KES1 151220Z 05006KT 17/16 A2995 RMK A01 T01680159  RH  094%=      5-min Rain = 0
KES1 151221Z 06006KT 17/16 A2996 RMK A01 T01680159  RH  094%=      5-min Rain = 0
KES1 151222Z 06006KT 17/16 A2996 RMK A01 T01690159  RH  094%=      5-min Rain = 0
KES1 151223Z 06006KT 17/16 A2996 RMK A01 T01680159  RH  094%=      5-min Rain = 0
KES1 151224Z 07007KT 17/16 A2995 RMK A01 T01680159  RH  094%=      5-min Rain = 0
KES1 151225Z 07006KT 17/16 A2995 RMK A01 T01680159  RH  094%=      5-min Rain = 0
KES1 151226Z 07005KT 17/16 A2995 RMK A01 T01680159  RH  094%=      5-min Rain = 0
KES1 151227Z 07005KT 17/16 A2995 RMK A01 T01680159  RH  094%=      5-min Rain = 0
KES1 151228Z 07003KT 17/16 A2995 RMK A01 T01680159  RH  094%=      5-min Rain = 0
KES1 151229Z 07004KT 17/16 A2995 RMK A01 T01680159  RH  094%=      5-min Rain = 0
KES1 151230Z 07003KT 17/16 A2996 RMK A01 T01680159  RH  094%=      5-min Rain = 0
KES1 151231Z 06002KT 17/16 A2996 RMK A01 T01680159  RH  094%=      5-min Rain = 0
KES1 151232Z 06003KT 17/16 A2996 RMK A01 T01680159  RH  094%=      5-min Rain = 0
KES1 151233Z 05003KT 17/16 A2996 RMK A01 T01690159  RH  094%=      5-min Rain = 0
KES1 151234Z 05003KT 17/16 A2996 RMK A01 T01690160  RH  094%=      5-min Rain = 0
KES1 151235Z 05004KT 17/16 A2996 RMK A01 T01690160  RH  094%=      5-min Rain = 0
KES1 151236Z 05004KT 17/16 A2996 RMK A01 T01700161  RH  094%=      5-min Rain = 0
KES1 151237Z 06003KT 17/16 A2997 RMK A01 T01700162  RH  095%=      5-min Rain = 0
KES1 151238Z 06004KT 17/16 A2997 RMK A01 T01710163  RH  095%=      5-min Rain = 0
KES1 151239Z 05005KT 17/16 A2997 RMK A01 T01710162  RH  094%=      5-min Rain = 0
KES1 151240Z 06005KT 17/16 A2997 RMK A01 T01710162  RH  094%=      5-min Rain = 0
KES1 151241Z 05004KT 17/16 A2997 RMK A01 T01710162  RH  094%=      5-min Rain = 0
KES1 151242Z 05004KT 17/16 A2998 RMK A01 T01710162  RH  094%=      5-min Rain = 0
KES1 151243Z 05003KT 17/16 A2998 RMK A01 T01720163  RH  094%=      5-min Rain = 0
KES1 151244Z 06003KT 17/16 A2998 RMK A01 T01720163  RH  094%=      5-min Rain = 0
KES1 151245Z 06004KT 17/16 A2998 RMK A01 T01720163  RH  094%=      5-min Rain = 0
KES1 151246Z 06004KT 17/16 A2998 RMK A01 T01720163  RH  094%=      5-min Rain = 0
KES1 151247Z 07004KT 17/16 A2997 RMK A01 T01720163  RH  094%=      5-min Rain = 0
KES1 151248Z 08004KT 17/16 A2997 RMK A01 T01730164  RH  094%=      5-min Rain = 0
KES1 151249Z 07004KT 17/16 A2997 RMK A01 T01730163  RH  094%=      5-min Rain = 0
KES1 151250Z 08004KT 17/16 A2997 RMK A01 T01730164  RH  094%=      5-min Rain = 0
KES1 151251Z 07005KT 17/16 A2997 RMK A01 T01730163  RH  094%=      5-min Rain = 0
KES1 151252Z 07004KT 17/16 A2997 RMK A01 T01730163  RH  094%=      5-min Rain = 0
KES1 151253Z 07004KT 17/16 A2997 RMK A01 T01730163  RH  094%=      5-min Rain = 0
KES1 151254Z 07004KT 17/16 A2997 RMK A01 T01740164  RH  094%=      5-min Rain = 0
KES1 151255Z 07003KT 17/17 A2997 RMK A01 T01740165  RH  094%=      5-min Rain = 0
KES1 151256Z 06003KT 18/17 A2998 RMK A01 T01750165  RH  094%=      5-min Rain = 0
KES1 151257Z 05004KT 18/17 A2998 RMK A01 T01750165  RH  094%=      5-min Rain = 0
KES1 151258Z 06004KT 18/17 A2998 RMK A01 T01750166  RH  094%=      5-min Rain = 0
KES1 151259Z 06003KT 18/17 A2998 RMK A01 T01750165  RH  094%=      5-min Rain = 0
KES1 151300Z 06003KT 18/17 A2998 RMK A01 T01760165  RH  093%=      5-min Rain = 0
KES1 151301Z 05002KT 18/17 A2998 RMK A01 T01760165  RH  093%=      5-min Rain = 0
KES1 151302Z 04003KT 18/17 A2998 RMK A01 T01760166  RH  094%=      5-min Rain = 0
KES1 151303Z 04002KT 18/17 A2998 RMK A01 T01760167  RH  094%=      5-min Rain = 0
KES1 151304Z 03003KT 18/17 A2998 RMK A01 T01760167  RH  094%=      5-min Rain = 0
KES1 151305Z 03003KT 18/17 A2998 RMK A01 T01770166  RH  094%=      5-min Rain = 0
KES1 151306Z 03003KT 18/17 A2998 RMK A01 T01770166  RH  093%=      5-min Rain = 0
KES1 151307Z 03004KT 18/17 A2998 RMK A01 T01770165  RH  093%=      5-min Rain = 0
KES1 151308Z 03004KT 18/17 A2998 RMK A01 T01770165  RH  093%=      5-min Rain = 0
KES1 151309Z 04004KT 18/17 A2998 RMK A01 T01770166  RH  093%=      5-min Rain = 0
KES1 151310Z 03004KT 18/17 A2998 RMK A01 T01770166  RH  093%=      5-min Rain = 0
KES1 151311Z 03004KT 18/17 A2998 RMK A01 T01770167  RH  094%=      5-min Rain = 0
KES1 151312Z 04005KT 18/17 A2999 RMK A01 T01770167  RH  094%=      5-min Rain = 0
KES1 151313Z 05004KT 18/17 A2999 RMK A01 T01770166  RH  093%=      5-min Rain = 0
KES1 151314Z 05004KT 18/17 A2999 RMK A01 T01770167  RH  094%=      5-min Rain = 0
KES1 151315Z 04004KT 18/17 A2999 RMK A01 T01770167  RH  094%=      5-min Rain = 0
KES1 151316Z 04004KT 18/17 A2999 RMK A01 T01780167  RH  094%=      5-min Rain = 0
KES1 151317Z 03005KT 18/17 A2999 RMK A01 T01770167  RH  094%=      5-min Rain = 0
KES1 151318Z 03005KT 18/17 A2999 RMK A01 T01780166  RH  093%=      5-min Rain = 0
KES1 151319Z 03004KT 18/17 A2999 RMK A01 T01770166  RH  093%=      5-min Rain = 0
KES1 151320Z 03003KT 18/17 A2999 RMK A01 T01770166  RH  093%=      5-min Rain = 0
KES1 151321Z 01002KT 18/17 A2999 RMK A01 T01780167  RH  093%=      5-min Rain = 0
KES1 151322Z 00002KT 18/17 A2999 RMK A01 T01780167  RH  094%=      5-min Rain = 0
KES1 151323Z 02003KT 18/17 A2999 RMK A01 T01780167  RH  093%=      5-min Rain = 0
KES1 151324Z 02003KT 18/17 A2999 RMK A01 T01780166  RH  093%=      5-min Rain = 0
KES1 151325Z 01004KT 18/17 A2999 RMK A01 T01770166  RH  093%=      5-min Rain = 0
KES1 151326Z 02004KT 18/17 A2999 RMK A01 T01780167  RH  093%=      5-min Rain = 0
KES1 151327Z 02003KT 18/17 A2999 RMK A01 T01780167  RH  093%=      5-min Rain = 0
KES1 151328Z 03002KT 18/17 A2999 RMK A01 T01770168  RH  094%=      5-min Rain = 0
KES1 151329Z 02002KT 18/17 A2999 RMK A01 T01780167  RH  094%=      5-min Rain = 0
KES1 151330Z 02003KT 18/17 A30 RMK A01 T01780166  RH  093%=      5-min Rain = 0
KES1 151331Z 03002KT 18/17 A30 RMK A01 T01780167  RH  093%=      5-min Rain = 0
KES1 151332Z 03002KT 18/17 A30 RMK A01 T01780166  RH  093%=      5-min Rain = 0
KES1 151333Z 01002KT 18/17 A30 RMK A01 T01780167  RH  093%=      5-min Rain = 0
KES1 151334Z 01004KT 18/17 A30 RMK A01 T01790168  RH  093%=      5-min Rain = 0
KES1 151335Z 01004KT 18/17 A30 RMK A01 T01790168  RH  093%=      5-min Rain = 0
KES1 151336Z 01004KT 18/17 A30 RMK A01 T01790168  RH  093%=      5-min Rain = 0
KES1 151337Z 01005KT 18/17 A3001 RMK A01 T01790168  RH  094%=      5-min Rain = 0
KES1 151338Z 01005KT 18/17 A3001 RMK A01 T01790167  RH  093%=      5-min Rain = 0
KES1 151339Z 01003KT 18/17 A3001 RMK A01 T01790167  RH  093%=      5-min Rain = 0
KES1 151340Z 00004KT 18/17 A3001 RMK A01 T01790169  RH  094%=      5-min Rain = 0
KES1 151341Z 01004KT 18/17 A3001 RMK A01 T01790170  RH  094%=      5-min Rain = 0
KES1 151342Z 01003KT 18/17 A3001 RMK A01 T01800169  RH  093%=      5-min Rain = 0
KES1 151343Z 02004KT 18/17 A3001 RMK A01 T01800168  RH  093%=      5-min Rain = 0
KES1 151344Z 02003KT 18/17 A3001 RMK A01 T01800168  RH  093%=      5-min Rain = 0
KES1 151345Z 01002KT 18/17 A3001 RMK A01 T01800169  RH  093%=      5-min Rain = 0
KES1 151346Z 02003KT 18/17 A3001 RMK A01 T01800171  RH  094%=      5-min Rain = 0
KES1 151347Z 01003KT 18/17 A3001 RMK A01 T01800170  RH  094%=      5-min Rain = 0
KES1 151348Z 36004KT 18/17 A3001 RMK A01 T01810170  RH  093%=      5-min Rain = 0
KES1 151349Z 36005KT 18/17 A3001 RMK A01 T01810170  RH  093%=      5-min Rain = 0
KES1 151350Z 36005KT 18/17 A3001 RMK A01 T01810169  RH  093%=      5-min Rain = 0
KES1 151351Z 01004KT 18/17 A3001 RMK A01 T01810169  RH  093%=      5-min Rain = 0
KES1 151352Z 01003KT 18/17 A3001 RMK A01 T01810169  RH  093%=      5-min Rain = 0
KES1 151353Z 01003KT 18/17 A3001 RMK A01 T01810169  RH  093%=      5-min Rain = 0
KES1 151354Z 04002KT 18/17 A3001 RMK A01 T01810169  RH  093%=      5-min Rain = 0
KES1 151355Z 04002KT 18/17 A3001 RMK A01 T01810169  RH  093%=      5-min Rain = 0
KES1 151356Z 05002KT 18/17 A3001 RMK A01 T01810169  RH  093%=      5-min Rain = 0
KES1 151357Z 05001KT 18/17 A3001 RMK A01 T01810169  RH  093%=      5-min Rain = 0
KES1 151358Z 04001KT 18/17 A3001 RMK A01 T01810168  RH  092%=      5-min Rain = 0
KES1 151359Z 07001KT 18/17 A3001 RMK A01 T01810169  RH  093%=      5-min Rain = 0
KES1 151400Z 05002KT 18/17 A3001 RMK A01 T01810169  RH  093%=      5-min Rain = 0
KES1 151401Z 05002KT 18/17 A3001 RMK A01 T01810169  RH  092%=      5-min Rain = 0
KES1 151402Z 04002KT 18/17 A3001 RMK A01 T01810170  RH  093%=      5-min Rain = 0
KES1 151403Z 03002KT 18/17 A3001 RMK A01 T01820171  RH  093%=      5-min Rain = 0
KES1 151404Z 01002KT 18/17 A3001 RMK A01 T01820170  RH  093%=      5-min Rain = 0
KES1 151405Z 01002KT 18/17 A3001 RMK A01 T01830171  RH  093%=      5-min Rain = 0
KES1 151406Z 01002KT 18/17 A3001 RMK A01 T01820170  RH  093%=      5-min Rain = 0
KES1 151407Z 00003KT 18/17 A3001 RMK A01 T01820171  RH  093%=      5-min Rain = 0
KES1 151408Z 01003KT 18/17 A3001 RMK A01 T01830170  RH  092%=      5-min Rain = 0
KES1 151409Z 01004KT 18/17 A3001 RMK A01 T01830170  RH  092%=      5-min Rain = 0
KES1 151410Z 02003KT 18/17 A3001 RMK A01 T01830170  RH  092%=      5-min Rain = 0
KES1 151411Z 02003KT 18/17 A3001 RMK A01 T01830170  RH  092%=      5-min Rain = 0
KES1 151412Z 03003KT 18/17 A3001 RMK A01 T01830170  RH  092%=      5-min Rain = 0
KES1 151413Z 01003KT 18/17 A3001 RMK A01 T01830171  RH  093%=      5-min Rain = 0
KES1 151414Z 01004KT 18/17 A3001 RMK A01 T01840172  RH  093%=      5-min Rain = 0
KES1 151415Z 02004KT 18/17 A3001 RMK A01 T01840172  RH  093%=      5-min Rain = 0
KES1 151416Z 02003KT 18/17 A3001 RMK A01 T01840170  RH  092%=      5-min Rain = 0
KES1 151417Z 01003KT 18/17 A3001 RMK A01 T01840171  RH  092%=      5-min Rain = 0
KES1 151418Z 02002KT 18/17 A3001 RMK A01 T01840171  RH  092%=      5-min Rain = 0
KES1 151419Z 04002KT 18/17 A3001 RMK A01 T01840172  RH  092%=      5-min Rain = 0
KES1 151420Z 04003KT 19/17 A3001 RMK A01 T01850172  RH  092%=      5-min Rain = 0
KES1 151421Z 02003KT 19/17 A3001 RMK A01 T01850172  RH  092%=      5-min Rain = 0
KES1 151422Z 02002KT 19/17 A3001 RMK A01 T01850172  RH  092%=      5-min Rain = 0
KES1 151423Z 04003KT 19/17 A3001 RMK A01 T01860173  RH  092%=      5-min Rain = 0
KES1 151424Z 06003KT 19/17 A30 RMK A01 T01860174  RH  092%=      5-min Rain = 0
KES1 151425Z 06003KT 19/18 A30 RMK A01 T01870175  RH  092%=      5-min Rain = 0
KES1 151426Z 05002KT 19/17 A30 RMK A01 T01880173  RH  091%=      5-min Rain = 0
KES1 151427Z 05001KT 19/17 A30 RMK A01 T01870173  RH  091%=      5-min Rain = 0
KES1 151428Z 05001KT 19/17 A30 RMK A01 T01880174  RH  092%=      5-min Rain = 0
KES1 151429Z 09002KT 19/17 A30 RMK A01 T01880174  RH  092%=      5-min Rain = 0
KES1 151430Z 09002KT 19/17 A30 RMK A01 T01880174  RH  091%=      5-min Rain = 0
KES1 151431Z 09001KT 19/17 A30 RMK A01 T01890173  RH  091%=      5-min Rain = 0
KES1 151432Z 06002KT 19/17 A30 RMK A01 T01890174  RH  091%=      5-min Rain = 0
KES1 151433Z 07001KT 19/17 A30 RMK A01 T01900173  RH  090%=      5-min Rain = 0
KES1 151434Z 08001KT 19/17 A30 RMK A01 T01890174  RH  090%=      5-min Rain = 0
KES1 151435Z 09001KT 19/18 A30 RMK A01 T01900175  RH  091%=      5-min Rain = 0
KES1 151436Z 10002KT 19/18 A30 RMK A01 T01910175  RH  090%=      5-min Rain = 0
KES1 151437Z 14002KT 19/18 A30 RMK A01 T01930177  RH  090%=      5-min Rain = 0
KES1 151438Z 13002KT 20/18 A30 RMK A01 T01950179  RH  090%=      5-min Rain = 0
KES1 151439Z 13002KT 20/18 A30 RMK A01 T01970176  RH  088%=      5-min Rain = 0
KES1 151440Z 10003KT 20/18 A30 RMK A01 T01980178  RH  088%=      5-min Rain = 0
KES1 151441Z 10004KT 20/18 A30 RMK A01 T01980178  RH  088%=      5-min Rain = 0
KES1 151442Z 11004KT 20/18 A30 RMK A01 T01970176  RH  088%=      5-min Rain = 0
KES1 151443Z 13004KT 20/18 A30 RMK A01 T01970176  RH  088%=      5-min Rain = 0
KES1 151444Z 12005KT 20/18 A30 RMK A01 T01970178  RH  089%=      5-min Rain = 0
KES1 151445Z 11004KT 20/18 A30 RMK A01 T01980178  RH  088%=      5-min Rain = 0
KES1 151446Z 10004KT 20/18 A30 RMK A01 T01990180  RH  089%=      5-min Rain = 0
KES1 151447Z 10004KT 20/18 A30 RMK A01 T02010181  RH  088%=      5-min Rain = 0
KES1 151448Z 12003KT 20/18 A30 RMK A01 T02010179  RH  087%=      5-min Rain = 0
KES1 151449Z 14003KT 20/18 A30 RMK A01 T02010183  RH  089%=      5-min Rain = 0
KES1 151450Z 12004KT 20/18 A30 RMK A01 T02040184  RH  089%=      5-min Rain = 0
KES1 151451Z 11006KT 21/18 A30 RMK A01 T02050184  RH  087%=      5-min Rain = 0
KES1 151452Z 11005KT 21/18 A3001 RMK A01 T02060182  RH  086%=      5-min Rain = 0
KES1 151453Z 11004KT 21/18 A30 RMK A01 T02060183  RH  087%=      5-min Rain = 0
KES1 151454Z 10004KT 21/19 A30 RMK A01 T02070185  RH  087%=      5-min Rain = 0
KES1 151455Z 10006KT 21/19 A30 RMK A01 T02080186  RH  087%=      5-min Rain = 0
KES1 151456Z 10006KT 21/18 A30 RMK A01 T02100184  RH  085%=      5-min Rain = 0
KES1 151457Z 11004KT 21/18 A30 RMK A01 T02090182  RH  085%=      5-min Rain = 0
KES1 151458Z 12004KT 21/19 A30 RMK A01 T02090188  RH  088%=      5-min Rain = 0
KES1 151459Z 11005KT 21/19 A30 RMK A01 T02100187  RH  086%=      5-min Rain = 0
KES1 151500Z 11006KT 21/18 A30 RMK A01 T02110184  RH  085%=      5-min Rain = 0
KES1 151501Z 12006KT 21/19 A30 RMK A01 T02110186  RH  086%=      5-min Rain = 0
KES1 151502Z 13004KT 21/18 A3001 RMK A01 T02100182  RH  084%=      5-min Rain = 0
KES1 151503Z 12003KT 21/18 A3001 RMK A01 T02100183  RH  085%=      5-min Rain = 0
KES1 151504Z 16004KT 21/19 A3001 RMK A01 T02100188  RH  087%=      5-min Rain = 0
KES1 151505Z 14005KT 21/19 A3001 RMK A01 T02120185  RH  085%=      5-min Rain = 0
KES1 151506Z 14003KT 21/18 A3001 RMK A01 T02120184  RH  084%=      5-min Rain = 0
KES1 151507Z 12004KT 21/19 A30 RMK A01 T02130188  RH  086%=      5-min Rain = 0
KES1 151508Z 13002KT 21/19 A30 RMK A01 T02140187  RH  085%=      5-min Rain = 0
KES1 151509Z 16004KT 22/19 A30 RMK A01 T02160187  RH  084%=      5-min Rain = 0
KES1 151510Z 15004KT 22/19 A30 RMK A01 T02160189  RH  084%=      5-min Rain = 0
KES1 151511Z 15004KT 22/19 A30 RMK A01 T02180188  RH  084%=      5-min Rain = 0
KES1 151512Z 14002KT 22/19 A30 RMK A01 T02180186  RH  082%=      5-min Rain = 0
KES1 151513Z 14004KT 22/19 A30 RMK A01 T02190186  RH  082%=      5-min Rain = 0
KES1 151514Z 13003KT 22/19 A30 RMK A01 T02190186  RH  082%=      5-min Rain = 0
KES1 151515Z 14004KT 22/19 A30 RMK A01 T02190189  RH  083%=      5-min Rain = 0
KES1 151516Z 14006KT 22/19 A30 RMK A01 T02200188  RH  082%=      5-min Rain = 0
KES1 151517Z 15005KT 22/19 A30 RMK A01 T02200187  RH  082%=      5-min Rain = 0
KES1 151518Z 15006KT 22/19 A30 RMK A01 T02200187  RH  081%=      5-min Rain = 0
KES1 151519Z 15006KT 22/19 A30 RMK A01 T02200187  RH  081%=      5-min Rain = 0
KES1 151520Z 14006KT 22/19 A30 RMK A01 T02200191  RH  083%=      5-min Rain = 0
KES1 151521Z 15006KT 22/19 A30 RMK A01 T02220190  RH  082%=      5-min Rain = 0
KES1 151522Z 16005KT 22/19 A30 RMK A01 T02230188  RH  081%=      5-min Rain = 0
KES1 151523Z 15005KT 22/19 A30 RMK A01 T02230188  RH  080%=      5-min Rain = 0
KES1 151524Z 15004KT 22/19 A30 RMK A01 T02230189  RH  081%=      5-min Rain = 0
KES1 151525Z 13003KT 22/19 A30 RMK A01 T02240188  RH  080%=      5-min Rain = 0
KES1 151526Z 13004KT 22/19 A30 RMK A01 T02240190  RH  081%=      5-min Rain = 0
KES1 151527Z 11004KT 23/19 A30 RMK A01 T02250190  RH  081%=      5-min Rain = 0
KES1 151528Z 14005KT 23/19 A30 RMK A01 T02270193  RH  081%=      5-min Rain = 0
KES1 151529Z 14003KT 23/19 A30 RMK A01 T02290194  RH  081%=      5-min Rain = 0
KES1 151530Z 15006KT 23/19 A30 RMK A01 T02300191  RH  079%=      5-min Rain = 0
KES1 151531Z 15006KT 23/19 A30 RMK A01 T02300193  RH  079%=      5-min Rain = 0
KES1 151532Z 14005KT 23/19 A30 RMK A01 T02300192  RH  079%=      5-min Rain = 0
KES1 151533Z 16005KT 23/20 A30 RMK A01 T02310195  RH  080%=      5-min Rain = 0
KES1 151534Z 16007KT 23/19 A30 RMK A01 T02320192  RH  078%=      5-min Rain = 0
KES1 151535Z 15005KT 23/19 A30 RMK A01 T02330190  RH  077%=      5-min Rain = 0
KES1 151536Z 15006KT 23/19 A30 RMK A01 T02320191  RH  078%=      5-min Rain = 0
KES1 151537Z 15008KT 23/19 A30 RMK A01 T02320188  RH  076%=      5-min Rain = 0
KES1 151538Z 15007KT 23/19 A30 RMK A01 T02330189  RH  076%=      5-min Rain = 0
KES1 151539Z 14006KT 23/19 A30 RMK A01 T02340191  RH  077%=      5-min Rain = 0
KES1 151558Z 12005KT 25/19 A2939 RMK A01 T02470192  RH  072%=      5-min Rain = 0
KES1 151559Z 14006KT 25/19 A2999 RMK A01 T02470192  RH  071%=      5-min Rain = 0
KES1 151600Z 15005KT 25/19 A2999 RMK A01 T02480191  RH  070%=      5-min Rain = 0
KES1 151610Z 11003KT 26/19 A2802 RMK A01 T02550194  RH  069%=      5-min Rain = 0
KES1 151611Z 10002KT 26/19 A2999 RMK A01 T02560189  RH  067%=      5-min Rain = 0
KES1 151612Z 12005KT 26/19 A30 RMK A01 T02570188  RH  066%=      5-min Rain = 0
KES1 151613Z 09005KT 26/18 A30 RMK A01 T02570183  RH  064%=      5-min Rain = 0
KES1 151614Z 12006KT 26/18 A30 RMK A01 T02560181  RH  063%=      5-min Rain = 0
KES1 151615Z 12004KT 25/18 A30 RMK A01 T02530182  RH  065%=      5-min Rain = 0
KES1 151616Z 12005KT 25/18 A30 RMK A01 T02530184  RH  066%=      5-min Rain = 0
KES1 151617Z 14004KT 25/18 A30 RMK A01 T02530180  RH  064%=      5-min Rain = 0
KES1 151618Z 12005KT 25/18 A30 RMK A01 T02530176  RH  062%=      5-min Rain = 0
KES1 151619Z 12006KT 25/18 A2999 RMK A01 T02540179  RH  063%=      5-min Rain = 0
KES1 151620Z 13005KT 26/18 A2999 RMK A01 T02560175  RH  061%=      5-min Rain = 0
KES1 151621Z 14005KT 26/18 A30 RMK A01 T02560183  RH  064%=      5-min Rain = 0
KES1 151622Z 12005KT 26/18 A30 RMK A01 T02580183  RH  063%=      5-min Rain = 0
KES1 151623Z 12003KT 26/18 A30 RMK A01 T02590179  RH  062%=      5-min Rain = 0
KES1 151624Z 13003KT 26/18 A30 RMK A01 T02570176  RH  061%=      5-min Rain = 0
KES1 151625Z 09002KT 26/18 A30 RMK A01 T02560179  RH  063%=      5-min Rain = 0
KES1 151626Z 11004KT 26/18 A30 RMK A01 T02570180  RH  063%=      5-min Rain = 0
KES1 151627Z 10006KT 26/18 A30 RMK A01 T02580176  RH  061%=      5-min Rain = 0
KES1 151628Z 09004KT 26/18 A30 RMK A01 T02580175  RH  060%=      5-min Rain = 0
KES1 151629Z 08002KT 26/17 A30 RMK A01 T02560174  RH  060%=      5-min Rain = 0
KES1 151630Z 14002KT 26/18 A30 RMK A01 T02550177  RH  062%=      5-min Rain = 0
KES1 151631Z 14004KT 26/18 A30 RMK A01 T02550177  RH  062%=      5-min Rain = 0
KES1 151632Z 10004KT 26/18 A30 RMK A01 T02570183  RH  064%=      5-min Rain = 0
KES1 151633Z 11005KT 26/18 A30 RMK A01 T02590180  RH  062%=      5-min Rain = 0
KES1 151634Z 12004KT 26/18 A30 RMK A01 T02600182  RH  062%=      5-min Rain = 0
KES1 151635Z 12002KT 26/18 A30 RMK A01 T02610178  RH  060%=      5-min Rain = 0
KES1 151636Z 10002KT 26/18 A30 RMK A01 T02600177  RH  060%=      5-min Rain = 0
KES1 151637Z 06001KT 26/18 A30 RMK A01 T02590178  RH  061%=      5-min Rain = 0
KES1 151638Z 13003KT 26/18 A30 RMK A01 T02590183  RH  063%=      5-min Rain = 0
KES1 151639Z 15001KT 26/18 A30 RMK A01 T02600177  RH  060%=      5-min Rain = 0
KES1 151640Z 09001KT 26/18 A30 RMK A01 T02590179  RH  061%=      5-min Rain = 0
KES1 151641Z 14003KT 26/18 A30 RMK A01 T02590180  RH  062%=      5-min Rain = 0
KES1 151642Z 11004KT 26/18 A30 RMK A01 T02590182  RH  062%=      5-min Rain = 0
KES1 151643Z 09005KT 26/18 A30 RMK A01 T02590182  RH  062%=      5-min Rain = 0
KES1 151644Z 06006KT 26/18 A30 RMK A01 T02600183  RH  063%=      5-min Rain = 0
KES1 151645Z 04006KT 26/18 A30 RMK A01 T02610180  RH  061%=      5-min Rain = 0
KES1 151646Z 04005KT 26/18 A30 RMK A01 T02600182  RH  062%=      5-min Rain = 0
KES1 151647Z 04005KT 26/18 A30 RMK A01 T02600182  RH  062%=      5-min Rain = 0
KES1 151648Z 02004KT 26/18 A30 RMK A01 T02600184  RH  063%=      5-min Rain = 0
KES1 151649Z 04005KT 26/18 A30 RMK A01 T02610184  RH  063%=      5-min Rain = 0
KES1 151650Z 04003KT 26/18 A30 RMK A01 T02600181  RH  062%=      5-min Rain = 0
KES1 151651Z 05003KT 26/18 A30 RMK A01 T02600181  RH  062%=      5-min Rain = 0
KES1 151652Z 09003KT 26/18 A30 RMK A01 T02620184  RH  062%=      5-min Rain = 0
KES1 151653Z 11004KT 26/19 A30 RMK A01 T02640187  RH  063%=      5-min Rain = 0
KES1 151654Z 09007KT 27/18 A30 RMK A01 T02650180  RH  059%=      5-min Rain = 0
KES1 151655Z 09005KT 26/18 A30 RMK A01 T02640180  RH  060%=      5-min Rain = 0
KES1 151656Z 10005KT 26/18 A2999 RMK A01 T02620180  RH  061%=      5-min Rain = 0
KES1 151657Z 08005KT 26/19 A2999 RMK A01 T02630185  RH  062%=      5-min Rain = 0
KES1 151658Z 08005KT 27/18 A2999 RMK A01 T02650182  RH  060%=      5-min Rain = 0
KES1 151659Z 07005KT 27/19 A2999 RMK A01 T02650185  RH  061%=      5-min Rain = 0
KES1 151700Z 09005KT 27/18 A2999 RMK A01 T02660183  RH  061%=      5-min Rain = 0
KES1 151701Z 07004KT 27/18 A2999 RMK A01 T02650180  RH  060%=      5-min Rain = 0
KES1 151702Z 10003KT 26/19 A2999 RMK A01 T02640185  RH  062%=      5-min Rain = 0
KES1 151703Z 09005KT 26/19 A2999 RMK A01 T02640185  RH  062%=      5-min Rain = 0
KES1 151704Z 11006KT 27/18 A2999 RMK A01 T02650184  RH  061%=      5-min Rain = 0
KES1 151705Z 09005KT 26/18 A30 RMK A01 T02620182  RH  061%=      5-min Rain = 0
KES1 151706Z 05006KT 26/18 A30 RMK A01 T02600180  RH  061%=      5-min Rain = 0
KES1 151707Z 02006KT 26/19 A30 RMK A01 T02580190  RH  066%=      5-min Rain = 0
KES1 151708Z 03006KT 26/19 A30 RMK A01 T02570191  RH  067%=      5-min Rain = 0
KES1 151709Z 02006KT 26/20 A30 RMK A01 T02580195  RH  068%=      5-min Rain = 0
KES1 151710Z 01006KT 26/20 A30 RMK A01 T02580196  RH  069%=      5-min Rain = 0
KES1 151711Z 01008KT 26/20 A30 RMK A01 T02570198  RH  070%=      5-min Rain = 0
KES1 151712Z 02010KT 26/20 A30 RMK A01 T02550196  RH  070%=      5-min Rain = 0
KES1 151713Z 01010KT 25/20 A30 RMK A01 T02530195  RH  070%=      5-min Rain = 0
KES1 151714Z 36009KT 25/20 A30 RMK A01 T02500201  RH  074%=      5-min Rain = 0
KES1 151715Z 01011KT 25/20 A30 RMK A01 T02500198  RH  073%=      5-min Rain = 0
KES1 151716Z 01007KT 25/20 A30 RMK A01 T02500200  RH  074%=      5-min Rain = 0
KES1 151717Z 00010KT 25/20 A30 RMK A01 T02490197  RH  073%=      5-min Rain = 0
KES1 151718Z 02007KT 25/20 A30 RMK A01 T02490198  RH  073%=      5-min Rain = 0
KES1 151719Z 00007KT 25/20 A30 RMK A01 T02490199  RH  074%=      5-min Rain = 0
KES1 151720Z 01010KT 25/20 A30 RMK A01 T02500199  RH  073%=      5-min Rain = 0
KES1 151721Z 02010KT 25/19 A30 RMK A01 T02510194  RH  071%=      5-min Rain = 0
KES1 151722Z 03011KT 25/19 A30 RMK A01 T02510193  RH  070%=      5-min Rain = 0
KES1 151723Z 03009KT 25/19 A30 RMK A01 T02510189  RH  069%=      5-min Rain = 0
KES1 151724Z 02009KT 25/19 A30 RMK A01 T02510189  RH  069%=      5-min Rain = 0
KES1 151725Z 01008KT 25/19 A30 RMK A01 T02500190  RH  069%=      5-min Rain = 0
KES1 151726Z 03008KT 25/19 A30 RMK A01 T02510192  RH  070%=      5-min Rain = 0
KES1 151727Z 04008KT 25/19 A30 RMK A01 T02510191  RH  069%=      5-min Rain = 0
KES1 151728Z 05009KT 25/19 A30 RMK A01 T02530189  RH  068%=      5-min Rain = 0
KES1 151729Z 02011KT 25/19 A30 RMK A01 T02540194  RH  069%=      5-min Rain = 0
KES1 151730Z 02012KT 25/19 A30 RMK A01 T02540193  RH  069%=      5-min Rain = 0
KES1 151731Z 02012KT 25/19 A30 RMK A01 T02530193  RH  069%=      5-min Rain = 0
KES1 151732Z 02012KT 25/19 A30 RMK A01 T02510191  RH  069%=      5-min Rain = 0
KES1 151733Z 01010KT 25/19 A30 RMK A01 T02500192  RH  070%=      5-min Rain = 0
KES1 151734Z 01012KT 25/19 A30 RMK A01 T02490192  RH  071%=      5-min Rain = 0
KES1 151735Z 01011KT 25/19 A30 RMK A01 T02480194  RH  072%=      5-min Rain = 0
KES1 151736Z 00011KT 25/20 A30 RMK A01 T02480195  RH  072%=      5-min Rain = 0
KES1 151737Z 01011KT 25/20 A30 RMK A01 T02480195  RH  072%=      5-min Rain = 0
KES1 151738Z 01010KT 25/19 A30 RMK A01 T02480193  RH  072%=      5-min Rain = 0
KES1 151739Z 02010KT 25/20 A30 RMK A01 T02480195  RH  072%=      5-min Rain = 0
KES1 151740Z 02011KT 25/20 A30 RMK A01 T02510195  RH  071%=      5-min Rain = 0
KES1 151741Z 02008KT 26/20 A30 RMK A01 T02550199  RH  071%=      5-min Rain = 0
KES1 151742Z 04006KT 26/20 A30 RMK A01 T02610202  RH  070%=      5-min Rain = 0
KES1 151743Z 05009KT 27/20 A30 RMK A01 T02650198  RH  067%=      5-min Rain = 0
KES1 151744Z 05009KT 27/20 A30 RMK A01 T02650196  RH  066%=      5-min Rain = 0
KES1 151745Z 04011KT 27/19 A30 RMK A01 T02650193  RH  065%=      5-min Rain = 0
KES1 151746Z 05012KT 26/19 A30 RMK A01 T02640189  RH  063%=      5-min Rain = 0
KES1 151747Z 02009KT 26/20 A30 RMK A01 T02630195  RH  066%=      5-min Rain = 0
KES1 151748Z 03010KT 26/19 A30 RMK A01 T02640191  RH  064%=      5-min Rain = 0
KES1 151749Z 03009KT 26/19 A30 RMK A01 T02640189  RH  063%=      5-min Rain = 0
KES1 151750Z 03012KT 26/19 A30 RMK A01 T02620193  RH  066%=      5-min Rain = 0
KES1 151751Z 03015KT 26/19 A3001 RMK A01 T02620194  RH  066%=      5-min Rain = 0
KES1 151752Z 04012KT 26/19 A3001 RMK A01 T02580191  RH  066%=      5-min Rain = 0
KES1 151753Z 02014KT 26/19 A3001 RMK A01 T02560192  RH  068%=      5-min Rain = 0
KES1 151754Z 02014KT 25/19 A3001 RMK A01 T02530191  RH  068%=      5-min Rain = 0
KES1 151755Z 02013KT 25/19 A3001 RMK A01 T02500190  RH  069%=      5-min Rain = 0
KES1 151756Z 03014KT 25/19 A3001 RMK A01 T02490190  RH  070%=      5-min Rain = 0
KES1 151757Z 02011KT 25/19 A3001 RMK A01 T02490193  RH  071%=      5-min Rain = 0
KES1 151758Z 04012KT 25/20 A3001 RMK A01 T02530196  RH  071%=      5-min Rain = 0
KES1 151759Z 04014KT 26/19 A3001 RMK A01 T02580193  RH  067%=      5-min Rain = 0
KES1 151800Z 04010KT 26/19 A3001 RMK A01 T02590194  RH  068%=      5-min Rain = 0
KES1 151801Z 02012KT 26/20 A3001 RMK A01 T02610196  RH  067%=      5-min Rain = 0
KES1 151802Z 02011KT 26/20 A3001 RMK A01 T02610195  RH  067%=      5-min Rain = 0
KES1 151803Z 02011KT 26/20 A3001 RMK A01 T02600197  RH  068%=      5-min Rain = 0
KES1 151804Z 02009KT 26/19 A3001 RMK A01 T02590194  RH  068%=      5-min Rain = 0
KES1 151805Z 01011KT 26/20 A3001 RMK A01 T02560195  RH  069%=      5-min Rain = 0
KES1 151806Z 03009KT 25/20 A3001 RMK A01 T02540196  RH  070%=      5-min Rain = 0
KES1 151807Z 03009G14KT 25/20 A3001 RMK A01 T02540196  RH  070%=      5-min Rain = 0
KES1 151808Z 03012KT 26/19 A3001 RMK A01 T02550192  RH  068%=      5-min Rain = 0
KES1 151809Z 04012KT 25/19 A3001 RMK A01 T02530190  RH  068%=      5-min Rain = 0
KES1 151810Z 05012KT 25/19 A3001 RMK A01 T02530190  RH  068%=      5-min Rain = 0
KES1 151811Z 05011KT 25/19 A3001 RMK A01 T02530189  RH  068%=      5-min Rain = 0
KES1 151812Z 06010KT 25/19 A3001 RMK A01 T02520191  RH  069%=      5-min Rain = 0
KES1 151813Z 04011KT 25/19 A3001 RMK A01 T02510191  RH  069%=      5-min Rain = 0
KES1 151814Z 02011KT 25/19 A3001 RMK A01 T02520190  RH  069%=      5-min Rain = 0
KES1 151815Z 02011KT 25/19 A3001 RMK A01 T02500189  RH  069%=      5-min Rain = 0
KES1 151816Z 02011KT 25/19 A3001 RMK A01 T02490189  RH  069%=      5-min Rain = 0
KES1 151817Z 03011KT 25/19 A3001 RMK A01 T02480190  RH  070%=      5-min Rain = 0
KES1 151818Z 02010KT 25/19 A3001 RMK A01 T02480189  RH  070%=      5-min Rain = 0
KES1 151819Z 02010KT 25/19 A3001 RMK A01 T02480189  RH  070%=      5-min Rain = 0
KES1 151820Z 01008KT 25/19 A3001 RMK A01 T02490192  RH  071%=      5-min Rain = 0
KES1 151821Z 02012KT 25/19 A3001 RMK A01 T02500194  RH  071%=      5-min Rain = 0
KES1 151822Z 03013KT 25/19 A3001 RMK A01 T02520191  RH  069%=      5-min Rain = 0
KES1 151823Z 03010KT 25/19 A3001 RMK A01 T02540191  RH  068%=      5-min Rain = 0
KES1 151824Z 01009KT 26/19 A3001 RMK A01 T02570194  RH  068%=      5-min Rain = 0
KES1 151825Z 02008KT 26/19 A3001 RMK A01 T02580192  RH  067%=      5-min Rain = 0
KES1 151826Z 01007KT 26/20 A3001 RMK A01 T02590196  RH  068%=      5-min Rain = 0
KES1 151827Z 01010KT 26/19 A30 RMK A01 T02610192  RH  066%=      5-min Rain = 0
KES1 151828Z 02009KT 26/20 A30 RMK A01 T02610195  RH  067%=      5-min Rain = 0
KES1 151829Z 01012KT 26/19 A30 RMK A01 T02600192  RH  066%=      5-min Rain = 0
KES1 151830Z 03009KT 26/20 A30 RMK A01 T02590196  RH  068%=      5-min Rain = 0
KES1 151831Z 03008KT 26/20 A30 RMK A01 T02620198  RH  068%=      5-min Rain = 0
KES1 151832Z 04007KT 27/20 A30 RMK A01 T02670201  RH  067%=      5-min Rain = 0
KES1 151833Z 05007KT 27/20 A30 RMK A01 T02700196  RH  064%=      5-min Rain = 0
KES1 151834Z 04008KT 27/19 A30 RMK A01 T02700194  RH  063%=      5-min Rain = 0
KES1 151835Z 01008KT 27/20 A30 RMK A01 T02690199  RH  065%=      5-min Rain = 0
KES1 151836Z 03010KT 27/20 A30 RMK A01 T02690200  RH  066%=      5-min Rain = 0
KES1 151837Z 03010KT 27/20 A30 RMK A01 T02710199  RH  065%=      5-min Rain = 0
KES1 151838Z 03009KT 27/19 A30 RMK A01 T02720194  RH  062%=      5-min Rain = 0
KES1 151839Z 03007KT 27/20 A30 RMK A01 T02690195  RH  064%=      5-min Rain = 0
KES1 151840Z 04007KT 27/20 A30 RMK A01 T02680201  RH  067%=      5-min Rain = 0
KES1 151841Z 03010KT 27/19 A30 RMK A01 T02680192  RH  063%=      5-min Rain = 0
KES1 151842Z 02008KT 27/19 A30 RMK A01 T02660192  RH  064%=      5-min Rain = 0
KES1 151843Z 03008G13KT 27/20 A30 RMK A01 T02650197  RH  066%=      5-min Rain = 0
KES1 151844Z 02008G13KT 27/20 A30 RMK A01 T02660196  RH  065%=      5-min Rain = 0
KES1 151845Z 01010KT 27/20 A30 RMK A01 T02670195  RH  065%=      5-min Rain = 0
KES1 151846Z 02010KT 27/20 A30 RMK A01 T02660196  RH  065%=      5-min Rain = 0
KES1 151847Z 04010KT 27/19 A30 RMK A01 T02650192  RH  064%=      5-min Rain = 0
KES1 151848Z 03006KT 26/20 A30 RMK A01 T02640196  RH  066%=      5-min Rain = 0
KES1 151849Z 02010KT 27/20 A30 RMK A01 T02660195  RH  065%=      5-min Rain = 0
KES1 151850Z 02009KT 27/20 A30 RMK A01 T02670195  RH  065%=      5-min Rain = 0
KES1 151851Z 02008KT 27/19 A30 RMK A01 T02670194  RH  064%=      5-min Rain = 0
KES1 151852Z 00008KT 27/19 A30 RMK A01 T02660191  RH  064%=      5-min Rain = 0
KES1 151853Z 01010KT 26/19 A30 RMK A01 T02640193  RH  065%=      5-min Rain = 0
KES1 151854Z 02009KT 27/20 A30 RMK A01 T02650196  RH  066%=      5-min Rain = 0
KES1 151855Z 02010KT 27/19 A30 RMK A01 T02670192  RH  063%=      5-min Rain = 0
KES1 151856Z 02006KT 27/20 A30 RMK A01 T02670198  RH  066%=      5-min Rain = 0
KES1 151857Z 02008KT 27/20 A30 RMK A01 T02690195  RH  064%=      5-min Rain = 0
KES1 151858Z 01006KT 27/20 A30 RMK A01 T02700198  RH  065%=      5-min Rain = 0
KES1 151859Z 36009KT 27/20 A30 RMK A01 T02700198  RH  065%=      5-min Rain = 0
KES1 151900Z 34005KT 27/19 A30 RMK A01 T02660192  RH  064%=      5-min Rain = 0
KES1 151901Z 02006KT 26/20 A30 RMK A01 T02640201  RH  068%=      5-min Rain = 0
KES1 151902Z 00006KT 27/20 A30 RMK A01 T02650195  RH  065%=      5-min Rain = 0
KES1 151903Z 00006KT 27/19 A30 RMK A01 T02660193  RH  064%=      5-min Rain = 0
KES1 151904Z 03007KT 27/20 A30 RMK A01 T02660196  RH  065%=      5-min Rain = 0
KES1 151905Z 03010KT 27/19 A30 RMK A01 T02690193  RH  063%=      5-min Rain = 0
KES1 151906Z 04010KT 27/19 A30 RMK A01 T02690192  RH  063%=      5-min Rain = 0
KES1 151907Z 04009KT 27/19 A30 RMK A01 T02690192  RH  063%=      5-min Rain = 0
KES1 151908Z 04006KT 27/19 A30 RMK A01 T02680192  RH  063%=      5-min Rain = 0
KES1 151909Z 05007KT 27/20 A30 RMK A01 T02680196  RH  064%=      5-min Rain = 0
KES1 151910Z 04007KT 27/19 A30 RMK A01 T02710193  RH  062%=      5-min Rain = 0
KES1 151911Z 04007KT 27/19 A30 RMK A01 T02720193  RH  062%=      5-min Rain = 0
KES1 151912Z 05009KT 27/19 A30 RMK A01 T02730192  RH  061%=      5-min Rain = 0
KES1 151913Z 06008KT 27/19 A30 RMK A01 T02730192  RH  061%=      5-min Rain = 0
KES1 151914Z 06007KT 27/19 A30 RMK A01 T02710187  RH  060%=      5-min Rain = 0
KES1 151915Z 05005KT 27/19 A30 RMK A01 T02670191  RH  063%=      5-min Rain = 0
KES1 151916Z 05007KT 27/19 A30 RMK A01 T02670188  RH  062%=      5-min Rain = 0
KES1 151917Z 07006KT 27/19 A30 RMK A01 T02670191  RH  063%=      5-min Rain = 0
KES1 151918Z 05009KT 27/19 A30 RMK A01 T02680194  RH  064%=      5-min Rain = 0
KES1 151919Z 05009KT 27/19 A30 RMK A01 T02690191  RH  062%=      5-min Rain = 0
KES1 151920Z 05005KT 27/19 A30 RMK A01 T02690191  RH  062%=      5-min Rain = 0
KES1 151921Z 03002KT 27/19 A30 RMK A01 T02680186  RH  061%=      5-min Rain = 0
KES1 151922Z 03008KT 27/19 A30 RMK A01 T02670189  RH  062%=      5-min Rain = 0
KES1 151923Z 04007KT 27/19 A30 RMK A01 T02670190  RH  063%=      5-min Rain = 0
KES1 151924Z 04006KT 27/19 A2999 RMK A01 T02670192  RH  063%=      5-min Rain = 0
KES1 151925Z 00007KT 27/19 A2999 RMK A01 T02680194  RH  064%=      5-min Rain = 0
KES1 151926Z 01004KT 27/20 A2999 RMK A01 T02670195  RH  065%=      5-min Rain = 0
KES1 151927Z 04006KT 27/20 A2999 RMK A01 T02660196  RH  066%=      5-min Rain = 0
KES1 151928Z 06008KT 27/19 A2999 RMK A01 T02660192  RH  064%=      5-min Rain = 0
KES1 151929Z 04006KT 27/19 A2999 RMK A01 T02660188  RH  062%=      5-min Rain = 0
KES1 151930Z 05006KT 27/19 A2999 RMK A01 T02660193  RH  064%=      5-min Rain = 0
KES1 151931Z 03007KT 27/20 A2999 RMK A01 T02680198  RH  066%=      5-min Rain = 0
KES1 151932Z 02009KT 27/20 A2999 RMK A01 T02720197  RH  064%=      5-min Rain = 0
KES1 151933Z 02009KT 27/20 A2999 RMK A01 T02720195  RH  063%=      5-min Rain = 0
KES1 151934Z 04008KT 27/19 A2999 RMK A01 T02690193  RH  063%=      5-min Rain = 0
KES1 151935Z 05008KT 27/19 A2999 RMK A01 T02670190  RH  062%=      5-min Rain = 0
KES1 151936Z 04006KT 27/19 A2999 RMK A01 T02660191  RH  064%=      5-min Rain = 0
KES1 151937Z 04009KT 27/20 A2999 RMK A01 T02660196  RH  065%=      5-min Rain = 0
KES1 151938Z 06009KT 27/20 A2999 RMK A01 T02710199  RH  065%=      5-min Rain = 0
KES1 151939Z 05009KT 28/19 A2999 RMK A01 T02750192  RH  060%=      5-min Rain = 0
KES1 151940Z 07008KT 27/19 A2999 RMK A01 T02730192  RH  061%=      5-min Rain = 0
KES1 151941Z 05009KT 27/19 A2999 RMK A01 T02710191  RH  062%=      5-min Rain = 0
KES1 151942Z 05008KT 27/19 A2999 RMK A01 T02700190  RH  061%=      5-min Rain = 0
KES1 151943Z 05007KT 27/19 A2999 RMK A01 T02700189  RH  061%=      5-min Rain = 0
KES1 151944Z 06003KT 27/19 A2999 RMK A01 T02700187  RH  061%=      5-min Rain = 0
KES1 151945Z 04005KT 27/19 A2998 RMK A01 T02700188  RH  061%=      5-min Rain = 0
KES1 151946Z 03007KT 27/19 A2998 RMK A01 T02720192  RH  062%=      5-min Rain = 0
KES1 151947Z 02008KT 27/19 A2998 RMK A01 T02740193  RH  061%=      5-min Rain = 0
KES1 151948Z 01006KT 28/20 A2998 RMK A01 T02750196  RH  062%=      5-min Rain = 0
KES1 151949Z 36008KT 27/19 A2998 RMK A01 T02740193  RH  061%=      5-min Rain = 0
KES1 151950Z 03006KT 27/19 A2998 RMK A01 T02710191  RH  062%=      5-min Rain = 0
KES1 151951Z 05006KT 27/19 A2998 RMK A01 T02690193  RH  063%=      5-min Rain = 0
KES1 151952Z 03008KT 27/20 A2998 RMK A01 T02710195  RH  063%=      5-min Rain = 0
KES1 151953Z 03009KT 27/19 A2998 RMK A01 T02730194  RH  062%=      5-min Rain = 0
KES1 151954Z 03007KT 27/19 A2998 RMK A01 T02740193  RH  062%=      5-min Rain = 0
KES1 151955Z 05008KT 27/19 A2998 RMK A01 T02740193  RH  061%=      5-min Rain = 0
KES1 151956Z 04006KT 27/19 A2998 RMK A01 T02730190  RH  060%=      5-min Rain = 0
KES1 151957Z 02007KT 27/19 A2998 RMK A01 T02720191  RH  061%=      5-min Rain = 0
KES1 151958Z 03005KT 27/19 A2998 RMK A01 T02730192  RH  061%=      5-min Rain = 0
KES1 151959Z 02005KT 27/19 A2998 RMK A01 T02740194  RH  062%=      5-min Rain = 0
KES1 152000Z 02008KT 27/19 A2998 RMK A01 T02740193  RH  061%=      5-min Rain = 0
KES1 152001Z 04007KT 27/20 A2998 RMK A01 T02740196  RH  062%=      5-min Rain = 0
KES1 152002Z 03008KT 27/19 A2998 RMK A01 T02730193  RH  062%=      5-min Rain = 0
KES1 152003Z 02005KT 27/20 A2998 RMK A01 T02720195  RH  063%=      5-min Rain = 0
KES1 152004Z 02009KT 27/20 A2998 RMK A01 T02710195  RH  063%=      5-min Rain = 0
KES1 152005Z 02008KT 27/19 A2998 RMK A01 T02700193  RH  063%=      5-min Rain = 0
KES1 152006Z 03006KT 27/19 A2998 RMK A01 T02690194  RH  063%=      5-min Rain = 0
KES1 152007Z 02006KT 27/20 A2998 RMK A01 T02690198  RH  065%=      5-min Rain = 0
KES1 152008Z 02005KT 27/20 A2998 RMK A01 T02690196  RH  064%=      5-min Rain = 0
KES1 152009Z 05005KT 27/20 A2998 RMK A01 T02700198  RH  065%=      5-min Rain = 0
KES1 152010Z 06007KT 27/19 A2998 RMK A01 T02720194  RH  062%=      5-min Rain = 0
KES1 152011Z 06006KT 27/19 A2998 RMK A01 T02730192  RH  061%=      5-min Rain = 0
KES1 152012Z 06009KT 28/19 A2998 RMK A01 T02750190  RH  060%=      5-min Rain = 0
KES1 152013Z 05009KT 28/19 A2998 RMK A01 T02750190  RH  060%=      5-min Rain = 0
KES1 152014Z 05009KT 28/19 A2998 RMK A01 T02750187  RH  059%=      5-min Rain = 0
KES1 152015Z 04007KT 27/19 A2998 RMK A01 T02730187  RH  059%=      5-min Rain = 0
KES1 152016Z 05005KT 27/19 A2998 RMK A01 T02730190  RH  060%=      5-min Rain = 0
KES1 152017Z 07007KT 28/19 A2997 RMK A01 T02750187  RH  059%=      5-min Rain = 0
KES1 152018Z 06004KT 27/19 A2997 RMK A01 T02740185  RH  058%=      5-min Rain = 0
KES1 152019Z 07005KT 27/19 A2997 RMK A01 T02730186  RH  059%=      5-min Rain = 0
KES1 152020Z 08003KT 27/19 A2997 RMK A01 T02720187  RH  060%=      5-min Rain = 0
KES1 152021Z 04006KT 27/19 A2997 RMK A01 T02730191  RH  061%=      5-min Rain = 0
KES1 152022Z 05006KT 28/20 A2997 RMK A01 T02760197  RH  062%=      5-min Rain = 0
KES1 152023Z 05007KT 28/20 A2997 RMK A01 T02790198  RH  061%=      5-min Rain = 0
KES1 152024Z 05008KT 28/20 A2997 RMK A01 T02830196  RH  060%=      5-min Rain = 0
KES1 152025Z 06008KT 28/19 A2997 RMK A01 T02830187  RH  056%=      5-min Rain = 0
KES1 152026Z 06006KT 28/19 A2997 RMK A01 T02790186  RH  057%=      5-min Rain = 0
KES1 152027Z 05004KT 28/19 A2997 RMK A01 T02760187  RH  058%=      5-min Rain = 0
KES1 152028Z 04002KT 28/19 A2997 RMK A01 T02750185  RH  058%=      5-min Rain = 0
KES1 152029Z 07004KT 27/19 A2997 RMK A01 T02740185  RH  058%=      5-min Rain = 0
KES1 152030Z 02003KT 27/19 A2997 RMK A01 T02740193  RH  061%=      5-min Rain = 0
KES1 152031Z 04005KT 27/20 A2997 RMK A01 T02740196  RH  062%=      5-min Rain = 0
KES1 152032Z 04006KT 27/20 A2997 RMK A01 T02740196  RH  062%=      5-min Rain = 0
KES1 152033Z 04008KT 28/19 A2997 RMK A01 T02750194  RH  061%=      5-min Rain = 0
KES1 152034Z 04005KT 28/19 A2997 RMK A01 T02750194  RH  061%=      5-min Rain = 0
KES1 152035Z 05007KT 27/19 A2997 RMK A01 T02740192  RH  061%=      5-min Rain = 0
KES1 152036Z 08009KT 27/19 A2997 RMK A01 T02730192  RH  061%=      5-min Rain = 0
KES1 152037Z 08009KT 27/19 A2997 RMK A01 T02730189  RH  060%=      5-min Rain = 0
KES1 152038Z 07008KT 27/19 A2997 RMK A01 T02720189  RH  060%=      5-min Rain = 0
KES1 152039Z 07009KT 27/19 A2997 RMK A01 T02720187  RH  060%=      5-min Rain = 0
KES1 152040Z 08007KT 27/19 A2997 RMK A01 T02710186  RH  060%=      5-min Rain = 0
KES1 152041Z 09006KT 27/19 A2997 RMK A01 T02720186  RH  059%=      5-min Rain = 0
KES1 152042Z 04003KT 27/19 A2997 RMK A01 T02740191  RH  060%=      5-min Rain = 0
KES1 152043Z 03007KT 28/20 A2997 RMK A01 T02770195  RH  061%=      5-min Rain = 0
KES1 152044Z 05006KT 28/20 A2997 RMK A01 T02820195  RH  059%=      5-min Rain = 0
KES1 152045Z 06005KT 29/19 A2997 RMK A01 T02850188  RH  056%=      5-min Rain = 0
KES1 152046Z 05004KT 28/19 A2997 RMK A01 T02840187  RH  056%=      5-min Rain = 0
KES1 152047Z 06006KT 28/19 A2997 RMK A01 T02840191  RH  057%=      5-min Rain = 0
KES1 152048Z 08005KT 28/18 A2996 RMK A01 T02830183  RH  055%=      5-min Rain = 0
KES1 152049Z 05007KT 28/19 A2997 RMK A01 T02810189  RH  057%=      5-min Rain = 0
KES1 152050Z 05006KT 28/19 A2996 RMK A01 T02810188  RH  057%=      5-min Rain = 0
KES1 152051Z 04008KT 28/19 A2997 RMK A01 T02810188  RH  057%=      5-min Rain = 0
KES1 152052Z 05004KT 28/18 A2997 RMK A01 T02790183  RH  056%=      5-min Rain = 0
KES1 152053Z 05006KT 28/19 A2996 RMK A01 T02770185  RH  057%=      5-min Rain = 0
KES1 152054Z 06005KT 28/19 A2996 RMK A01 T02760188  RH  059%=      5-min Rain = 0
KES1 152055Z 06007KT 28/19 A2996 RMK A01 T02780190  RH  059%=      5-min Rain = 0
KES1 152056Z 06006KT 28/19 A2996 RMK A01 T02790187  RH  057%=      5-min Rain = 0
KES1 152057Z 06004KT 28/19 A2996 RMK A01 T02790189  RH  058%=      5-min Rain = 0
KES1 152058Z 06006KT 28/19 A2996 RMK A01 T02790190  RH  058%=      5-min Rain = 0
KES1 152059Z 04005KT 28/19 A2996 RMK A01 T02800191  RH  059%=      5-min Rain = 0
KES1 152100Z 04008KT 28/19 A2996 RMK A01 T02790190  RH  058%=      5-min Rain = 0
KES1 152101Z 06008KT 28/19 A2996 RMK A01 T02790187  RH  057%=      5-min Rain = 0
KES1 152102Z 06009KT 28/19 A2996 RMK A01 T02780188  RH  058%=      5-min Rain = 0
KES1 152103Z 06007KT 28/19 A2996 RMK A01 T02760185  RH  058%=      5-min Rain = 0
KES1 152104Z 04007KT 28/19 A2996 RMK A01 T02750188  RH  059%=      5-min Rain = 0
KES1 152105Z 03005KT 28/19 A2996 RMK A01 T02750189  RH  059%=      5-min Rain = 0
KES1 152106Z 05009KT 28/20 A2996 RMK A01 T02780198  RH  062%=      5-min Rain = 0
KES1 152107Z 03010KT 28/19 A2995 RMK A01 T02800194  RH  060%=      5-min Rain = 0
KES1 152108Z 05010KT 28/20 A2995 RMK A01 T02800196  RH  060%=      5-min Rain = 0
KES1 152109Z 05009KT 28/20 A2995 RMK A01 T02820196  RH  060%=      5-min Rain = 0
KES1 152110Z 04008KT 28/20 A2995 RMK A01 T02830197  RH  060%=      5-min Rain = 0
KES1 152111Z 05007KT 29/20 A2995 RMK A01 T02860198  RH  059%=      5-min Rain = 0
KES1 152112Z 06009KT 29/20 A2995 RMK A01 T02870195  RH  057%=      5-min Rain = 0
KES1 152113Z 05007KT 28/19 A2995 RMK A01 T02840192  RH  058%=      5-min Rain = 0
KES1 152114Z 04008KT 28/20 A2995 RMK A01 T02810195  RH  060%=      5-min Rain = 0
KES1 152115Z 04009KT 28/19 A2995 RMK A01 T02790194  RH  060%=      5-min Rain = 0
KES1 152116Z 03011KT 28/19 A2995 RMK A01 T02780193  RH  060%=      5-min Rain = 0
KES1 152117Z 05010KT 28/19 A2995 RMK A01 T02760190  RH  059%=      5-min Rain = 0
KES1 152118Z 03006KT 27/19 A2995 RMK A01 T02740191  RH  060%=      5-min Rain = 0
KES1 152119Z 03008KT 27/19 A2995 RMK A01 T02730194  RH  062%=      5-min Rain = 0
KES1 152120Z 04007KT 27/19 A2995 RMK A01 T02740192  RH  061%=      5-min Rain = 0
KES1 152121Z 05009KT 27/19 A2995 RMK A01 T02740192  RH  061%=      5-min Rain = 0
KES1 152122Z 04009KT 28/19 A2995 RMK A01 T02760194  RH  061%=      5-min Rain = 0
KES1 152123Z 04011KT 28/19 A2994 RMK A01 T02770192  RH  060%=      5-min Rain = 0
KES1 152124Z 05010KT 28/19 A2994 RMK A01 T02790191  RH  059%=      5-min Rain = 0
KES1 152125Z 05008KT 28/19 A2994 RMK A01 T02800191  RH  058%=      5-min Rain = 0
KES1 152126Z 05007KT 28/19 A2994 RMK A01 T02810192  RH  058%=      5-min Rain = 0
KES1 152127Z 04006KT 28/19 A2994 RMK A01 T02820193  RH  059%=      5-min Rain = 0
KES1 152128Z 04008KT 28/19 A2994 RMK A01 T02830193  RH  058%=      5-min Rain = 0
KES1 152129Z 04009KT 28/19 A2994 RMK A01 T02830192  RH  058%=      5-min Rain = 0
KES1 152130Z 04007KT 28/20 A2994 RMK A01 T02840196  RH  059%=      5-min Rain = 0
KES1 152131Z 06007KT 29/20 A2994 RMK A01 T02880198  RH  058%=      5-min Rain = 0
KES1 152132Z 07009KT 29/20 A2994 RMK A01 T02900196  RH  057%=      5-min Rain = 0
KES1 152133Z 07011KT 29/20 A2994 RMK A01 T02890195  RH  057%=      5-min Rain = 0
KES1 152134Z 06007KT 28/19 A2994 RMK A01 T02830189  RH  057%=      5-min Rain = 0
KES1 152135Z 06007KT 28/19 A2994 RMK A01 T02790193  RH  060%=      5-min Rain = 0
KES1 152136Z 08010KT 28/19 A2994 RMK A01 T02780192  RH  059%=      5-min Rain = 0
KES1 152137Z 06009KT 28/19 A2994 RMK A01 T02770190  RH  059%=      5-min Rain = 0
KES1 152138Z 04009KT 28/19 A2994 RMK A01 T02780193  RH  060%=      5-min Rain = 0
KES1 152139Z 04009KT 28/19 A2994 RMK A01 T02810191  RH  058%=      5-min Rain = 0
KES1 152140Z 06008KT 28/19 A2994 RMK A01 T02820191  RH  058%=      5-min Rain = 0
KES1 152141Z 06007KT 28/19 A2993 RMK A01 T02820191  RH  058%=      5-min Rain = 0
KES1 152142Z 05009KT 28/20 A2993 RMK A01 T02820195  RH  059%=      5-min Rain = 0
KES1 152143Z 04009KT 28/19 A2993 RMK A01 T02840194  RH  058%=      5-min Rain = 0
KES1 152144Z 05008KT 29/19 A2993 RMK A01 T02860192  RH  057%=      5-min Rain = 0
KES1 152145Z 05008KT 29/19 A2993 RMK A01 T02860193  RH  057%=      5-min Rain = 0
KES1 152146Z 06009KT 29/19 A2993 RMK A01 T02860191  RH  056%=      5-min Rain = 0
KES1 152147Z 05009KT 29/19 A2993 RMK A01 T02850189  RH  056%=      5-min Rain = 0
KES1 152148Z 05008KT 28/19 A2993 RMK A01 T02840188  RH  056%=      5-min Rain = 0
KES1 152149Z 03006KT 28/19 A2993 RMK A01 T02830189  RH  057%=      5-min Rain = 0
KES1 152150Z 06006KT 28/19 A2993 RMK A01 T02840193  RH  058%=      5-min Rain = 0
KES1 152151Z 06007KT 29/19 A2993 RMK A01 T02860190  RH  056%=      5-min Rain = 0
KES1 152152Z 05010KT 29/19 A2993 RMK A01 T02860193  RH  057%=      5-min Rain = 0
KES1 152153Z 05007KT 29/19 A2993 RMK A01 T02860191  RH  056%=      5-min Rain = 0
KES1 152154Z 04007KT 29/19 A2993 RMK A01 T02850191  RH  057%=      5-min Rain = 0
KES1 152155Z 04006KT 29/19 A2993 RMK A01 T02850193  RH  058%=      5-min Rain = 0
KES1 152156Z 06009KT 28/19 A2993 RMK A01 T02840190  RH  057%=      5-min Rain = 0
KES1 152157Z 06010KT 28/19 A2993 RMK A01 T02840192  RH  057%=      5-min Rain = 0
KES1 152158Z 07009KT 28/19 A2993 RMK A01 T02840191  RH  057%=      5-min Rain = 0
KES1 152159Z 06009KT 28/19 A2993 RMK A01 T02840193  RH  058%=      5-min Rain = 0
KES1 152200Z 06010KT 29/19 A2993 RMK A01 T02860193  RH  057%=      5-min Rain = 0
KES1 152201Z 05010KT 29/19 A2993 RMK A01 T02860192  RH  057%=      5-min Rain = 0
KES1 152202Z 05009KT 29/19 A2993 RMK A01 T02860191  RH  056%=      5-min Rain = 0
KES1 152203Z 05007KT 29/19 A2993 RMK A01 T02860193  RH  057%=      5-min Rain = 0
KES1 152204Z 03008KT 29/19 A2993 RMK A01 T02860190  RH  056%=      5-min Rain = 0
KES1 152205Z 03008KT 29/19 A2992 RMK A01 T02860192  RH  057%=      5-min Rain = 0
KES1 152206Z 04006KT 29/19 A2992 RMK A01 T02850192  RH  057%=      5-min Rain = 0
KES1 152207Z 05006KT 29/19 A2992 RMK A01 T02850190  RH  056%=      5-min Rain = 0
KES1 152208Z 05005KT 29/19 A2992 RMK A01 T02860193  RH  057%=      5-min Rain = 0
KES1 152209Z 03005KT 29/20 A2992 RMK A01 T02880197  RH  058%=      5-min Rain = 0
KES1 152210Z 05006KT 29/19 A2992 RMK A01 T02890193  RH  056%=      5-min Rain = 0
KES1 152211Z 05006KT 29/20 A2992 RMK A01 T02900197  RH  057%=      5-min Rain = 0
KES1 152212Z 06009KT 29/19 A2992 RMK A01 T02920194  RH  056%=      5-min Rain = 0
KES1 152213Z 05009KT 29/19 A2992 RMK A01 T02900192  RH  055%=      5-min Rain = 0
KES1 152214Z 04010KT 29/19 A2992 RMK A01 T02880190  RH  056%=      5-min Rain = 0
KES1 152215Z 05009KT 29/19 A2992 RMK A01 T02880190  RH  056%=      5-min Rain = 0
KES1 152216Z 05011KT 29/19 A2992 RMK A01 T02870191  RH  056%=      5-min Rain = 0
KES1 152217Z 05009KT 29/19 A2992 RMK A01 T02870191  RH  056%=      5-min Rain = 0
KES1 152218Z 06009KT 29/19 A2992 RMK A01 T02870190  RH  056%=      5-min Rain = 0
KES1 152219Z 06008KT 29/19 A2992 RMK A01 T02870188  RH  055%=      5-min Rain = 0
KES1 152220Z 07003KT 29/18 A2992 RMK A01 T02850184  RH  054%=      5-min Rain = 0
KES1 152221Z 04003KT 28/19 A2991 RMK A01 T02840187  RH  056%=      5-min Rain = 0
KES1 152222Z 04005KT 28/19 A2991 RMK A01 T02840191  RH  057%=      5-min Rain = 0
KES1 152223Z 05008KT 29/19 A2991 RMK A01 T02860190  RH  056%=      5-min Rain = 0
KES1 152224Z 07005KT 29/19 A2991 RMK A01 T02870187  RH  055%=      5-min Rain = 0
KES1 152225Z 05005KT 29/19 A2991 RMK A01 T02870186  RH  055%=      5-min Rain = 0
KES1 152226Z 05009KT 29/19 A2991 RMK A01 T02870189  RH  056%=      5-min Rain = 0
KES1 152227Z 05008KT 29/19 A2991 RMK A01 T02870188  RH  055%=      5-min Rain = 0
KES1 152228Z 06008KT 29/19 A2991 RMK A01 T02870190  RH  056%=      5-min Rain = 0
KES1 152229Z 04007KT 29/19 A2991 RMK A01 T02880192  RH  056%=      5-min Rain = 0
KES1 152230Z 04008KT 29/19 A2991 RMK A01 T02890191  RH  056%=      5-min Rain = 0
KES1 152231Z 04005KT 29/19 A2991 RMK A01 T02890193  RH  056%=      5-min Rain = 0
KES1 152232Z 06007KT 29/19 A2991 RMK A01 T02900192  RH  055%=      5-min Rain = 0
KES1 152233Z 06007KT 29/19 A2991 RMK A01 T02900187  RH  054%=      5-min Rain = 0
KES1 152234Z 07008KT 29/19 A2991 RMK A01 T02880186  RH  054%=      5-min Rain = 0
KES1 152235Z 06005KT 29/19 A2991 RMK A01 T02880190  RH  055%=      5-min Rain = 0
KES1 152236Z 03004KT 29/18 A2991 RMK A01 T02880184  RH  053%=      5-min Rain = 0
KES1 152237Z 05002KT 29/19 A2991 RMK A01 T02870186  RH  054%=      5-min Rain = 0
KES1 152238Z 05006KT 29/19 A2991 RMK A01 T02870188  RH  055%=      5-min Rain = 0
KES1 152239Z 05009KT 29/19 A2991 RMK A01 T02870186  RH  054%=      5-min Rain = 0
KES1 152240Z 06006KT 29/19 A2991 RMK A01 T02870187  RH  054%=      5-min Rain = 0
KES1 152241Z 03005KT 29/19 A299 RMK A01 T02870190  RH  056%=      5-min Rain = 0
KES1 152242Z 02007KT 29/19 A299 RMK A01 T02870186  RH  054%=      5-min Rain = 0
KES1 152243Z 01006KT 29/19 A299 RMK A01 T02860188  RH  056%=      5-min Rain = 0
KES1 152244Z 03006KT 29/19 A299 RMK A01 T02860189  RH  056%=      5-min Rain = 0
KES1 152245Z 05007KT 29/19 A299 RMK A01 T02860191  RH  056%=      5-min Rain = 0
KES1 152246Z 03006KT 29/19 A299 RMK A01 T02880190  RH  055%=      5-min Rain = 0
KES1 152247Z 05005KT 29/19 A299 RMK A01 T02890193  RH  056%=      5-min Rain = 0
KES1 152248Z 06007KT 29/19 A299 RMK A01 T02900189  RH  054%=      5-min Rain = 0
KES1 152249Z 07005KT 29/19 A299 RMK A01 T02890186  RH  054%=      5-min Rain = 0
KES1 152250Z 06003KT 29/19 A299 RMK A01 T02880190  RH  055%=      5-min Rain = 0
KES1 152251Z 01006KT 29/19 A299 RMK A01 T02890193  RH  056%=      5-min Rain = 0
KES1 152252Z 04010KT 29/19 A299 RMK A01 T02890191  RH  055%=      5-min Rain = 0
KES1 152253Z 06009KT 29/19 A299 RMK A01 T02900191  RH  055%=      5-min Rain = 0
KES1 152254Z 06009KT 29/19 A299 RMK A01 T02900188  RH  054%=      5-min Rain = 0
KES1 152255Z 06008KT 29/19 A299 RMK A01 T02900191  RH  055%=      5-min Rain = 0
KES1 152256Z 05008KT 29/19 A299 RMK A01 T02900188  RH  054%=      5-min Rain = 0
KES1 152257Z 07006KT 29/19 A299 RMK A01 T02890191  RH  055%=      5-min Rain = 0
KES1 152258Z 09006KT 29/19 A299 RMK A01 T02900188  RH  054%=      5-min Rain = 0
KES1 152259Z 08004KT 29/19 A299 RMK A01 T02900187  RH  054%=      5-min Rain = 0
KES1 152300Z 06005KT 29/19 A299 RMK A01 T02900191  RH  055%=      5-min Rain = 0
KES1 152301Z 04006KT 29/19 A299 RMK A01 T02910193  RH  056%=      5-min Rain = 0
KES1 152302Z 04008KT 29/19 A299 RMK A01 T02920192  RH  055%=      5-min Rain = 0
KES1 152303Z 04008KT 29/19 A299 RMK A01 T02920188  RH  053%=      5-min Rain = 0
KES1 152304Z 05008KT 29/19 A299 RMK A01 T02900188  RH  054%=      5-min Rain = 0
KES1 152305Z 05009KT 29/19 A299 RMK A01 T02890188  RH  054%=      5-min Rain = 0
KES1 152306Z 04008KT 29/19 A299 RMK A01 T02890189  RH  055%=      5-min Rain = 0
KES1 152307Z 05007KT 29/19 A2989 RMK A01 T02880187  RH  054%=      5-min Rain = 0
KES1 152308Z 03008KT 29/19 A2989 RMK A01 T02880187  RH  055%=      5-min Rain = 0
KES1 152309Z 02008KT 29/19 A2989 RMK A01 T02870188  RH  055%=      5-min Rain = 0
KES1 152310Z 03007KT 29/19 A2989 RMK A01 T02870189  RH  055%=      5-min Rain = 0
KES1 152311Z 05006KT 29/19 A2989 RMK A01 T02880193  RH  057%=      5-min Rain = 0
KES1 152312Z 06007KT 29/19 A2989 RMK A01 T02890190  RH  055%=      5-min Rain = 0
KES1 152313Z 05008KT 29/19 A2989 RMK A01 T02900189  RH  055%=      5-min Rain = 0
KES1 152314Z 04007KT 29/19 A2989 RMK A01 T02890191  RH  055%=      5-min Rain = 0
KES1 152315Z 05006KT 29/19 A2989 RMK A01 T02900190  RH  055%=      5-min Rain = 0
KES1 152316Z 07004KT 29/19 A2989 RMK A01 T02900190  RH  055%=      5-min Rain = 0
KES1 152317Z 06006KT 29/19 A2989 RMK A01 T02910192  RH  055%=      5-min Rain = 0
KES1 152318Z 07011KT 29/19 A2989 RMK A01 T02910189  RH  054%=      5-min Rain = 0
KES1 152319Z 07011KT 29/19 A2989 RMK A01 T02900188  RH  054%=      5-min Rain = 0
KES1 152320Z 07010KT 29/19 A2989 RMK A01 T02880186  RH  054%=      5-min Rain = 0
KES1 152321Z 07008KT 29/19 A2989 RMK A01 T02880188  RH  055%=      5-min Rain = 0
KES1 152322Z 06012KT 29/19 A2989 RMK A01 T02870189  RH  055%=      5-min Rain = 0
KES1 152323Z 06011KT 29/19 A2989 RMK A01 T02870188  RH  055%=      5-min Rain = 0
KES1 152324Z 06007KT 29/19 A299 RMK A01 T02860189  RH  055%=      5-min Rain = 0
KES1 152325Z 05007KT 29/19 A299 RMK A01 T02860189  RH  056%=      5-min Rain = 0
KES1 152326Z 07008KT 29/19 A299 RMK A01 T02860187  RH  055%=      5-min Rain = 0
KES1 152327Z 05008KT 29/19 A299 RMK A01 T02860189  RH  056%=      5-min Rain = 0
KES1 152328Z 06010KT 29/19 A299 RMK A01 T02850189  RH  056%=      5-min Rain = 0
KES1 152329Z 06011KT 28/19 A299 RMK A01 T02840189  RH  056%=      5-min Rain = 0
KES1 152330Z 07011KT 28/19 A299 RMK A01 T02840190  RH  057%=      5-min Rain = 0
KES1 152331Z 07012KT 28/19 A299 RMK A01 T02840190  RH  057%=      5-min Rain = 0
KES1 152332Z 08011KT 28/19 A299 RMK A01 T02840192  RH  057%=      5-min Rain = 0
KES1 152333Z 08012KT 29/19 A299 RMK A01 T02850190  RH  057%=      5-min Rain = 0
KES1 152334Z 08011KT 28/19 A299 RMK A01 T02840191  RH  057%=      5-min Rain = 0
KES1 152335Z 08010G15KT 28/19 A299 RMK A01 T02840191  RH  057%=      5-min Rain = 0
KES1 152336Z 07012KT 28/19 A299 RMK A01 T02840191  RH  057%=      5-min Rain = 0
KES1 152337Z 07011KT 28/19 A299 RMK A01 T02840191  RH  057%=      5-min Rain = 0
KES1 152338Z 08011KT 28/19 A299 RMK A01 T02840191  RH  057%=      5-min Rain = 0
KES1 152339Z 09009KT 28/19 A299 RMK A01 T02840192  RH  057%=      5-min Rain = 0
KES1 152340Z 08008KT 28/19 A299 RMK A01 T02840192  RH  058%=      5-min Rain = 0
KES1 152341Z 06010KT 28/19 A299 RMK A01 T02840193  RH  058%=      5-min Rain = 0
KES1 152342Z 07008KT 28/19 A299 RMK A01 T02840193  RH  058%=      5-min Rain = 0
KES1 152343Z 06007KT 29/20 A299 RMK A01 T02850195  RH  058%=      5-min Rain = 0
KES1 152344Z 07011KT 29/19 A299 RMK A01 T02860193  RH  057%=      5-min Rain = 0
KES1 152345Z 07009KT 29/19 A299 RMK A01 T02860194  RH  058%=      5-min Rain = 0
KES1 152346Z 05011KT 28/19 A299 RMK A01 T02840192  RH  057%=      5-min Rain = 0
KES1 152347Z 06011KT 28/19 A299 RMK A01 T02830193  RH  058%=      5-min Rain = 0
KES1 152348Z 07011KT 28/19 A299 RMK A01 T02830194  RH  058%=      5-min Rain = 0
KES1 152349Z 07010KT 28/19 A299 RMK A01 T02830191  RH  058%=      5-min Rain = 0
KES1 152350Z 06009KT 28/19 A299 RMK A01 T02820193  RH  059%=      5-min Rain = 0
KES1 152351Z 06010KT 28/19 A299 RMK A01 T02810192  RH  059%=      5-min Rain = 0
KES1 152352Z 06009KT 28/19 A299 RMK A01 T02800193  RH  059%=      5-min Rain = 0
KES1 152353Z 06010KT 28/19 A299 RMK A01 T02800194  RH  060%=      5-min Rain = 0
KES1 152354Z 06012KT 28/19 A299 RMK A01 T02800194  RH  060%=      5-min Rain = 0
KES1 152355Z 07011KT 28/19 A2989 RMK A01 T02800193  RH  059%=      5-min Rain = 0
KES1 152356Z 07009KT 28/20 A2989 RMK A01 T02800195  RH  060%=      5-min Rain = 0
KES1 152357Z 08010KT 28/19 A2989 RMK A01 T02810194  RH  059%=      5-min Rain = 0
KES1 152358Z 08010KT 28/19 A2989 RMK A01 T02810193  RH  059%=      5-min Rain = 0
KES1 152359Z 06011KT 28/19 A2989 RMK A01 T02810192  RH  059%=      5-min Rain = 0
KES1 160000Z 07011KT 28/19 A2989 RMK A01 T02800191  RH  058%=      5-min Rain = 0
KES1 160001Z 07010KT 28/19 A2989 RMK A01 T02800192  RH  059%=      5-min Rain = 0
KES1 160002Z 08009KT 28/19 A2989 RMK A01 T02800193  RH  059%=      5-min Rain = 0
KES1 160003Z 06010KT 28/19 A2989 RMK A01 T02800193  RH  059%=      5-min Rain = 0
KES1 160004Z 07008KT 28/20 A2989 RMK A01 T02800195  RH  060%=      5-min Rain = 0
KES1 160005Z 06011KT 28/19 A2989 RMK A01 T02800194  RH  060%=      5-min Rain = 0
KES1 160006Z 06010KT 28/19 A2989 RMK A01 T02790194  RH  060%=      5-min Rain = 0
KES1 160007Z 06010KT 28/19 A2989 RMK A01 T02780193  RH  060%=      5-min Rain = 0
KES1 160008Z 06009KT 28/19 A2989 RMK A01 T02780191  RH  059%=      5-min Rain = 0
KES1 160009Z 06007KT 28/19 A2989 RMK A01 T02770194  RH  060%=      5-min Rain = 0
KES1 160010Z 06008KT 28/19 A2989 RMK A01 T02770194  RH  060%=      5-min Rain = 0
KES1 160011Z 08009KT 28/19 A2989 RMK A01 T02770193  RH  060%=      5-min Rain = 0
KES1 160012Z 06008KT 28/19 A2989 RMK A01 T02770193  RH  060%=      5-min Rain = 0
KES1 160013Z 06010KT 28/19 A2989 RMK A01 T02760194  RH  061%=      5-min Rain = 0
KES1 160014Z 07009KT 28/19 A2989 RMK A01 T02760194  RH  061%=      5-min Rain = 0
KES1 160015Z 06010KT 28/19 A2989 RMK A01 T02750194  RH  061%=      5-min Rain = 0
KES1 160016Z 07009KT 28/20 A2989 RMK A01 T02750195  RH  062%=      5-min Rain = 0
KES1 160017Z 06007KT 28/20 A2989 RMK A01 T02750195  RH  062%=      5-min Rain = 0
KES1 160018Z 06013KT 27/20 A2989 RMK A01 T02740196  RH  062%=      5-min Rain = 0
KES1 160019Z 07010KT 27/20 A2989 RMK A01 T02740195  RH  062%=      5-min Rain = 0
KES1 160020Z 07011KT 27/20 A2989 RMK A01 T02740196  RH  062%=      5-min Rain = 0
KES1 160021Z 07011KT 27/19 A2989 RMK A01 T02740194  RH  062%=      5-min Rain = 0
KES1 160022Z 06011KT 27/19 A2989 RMK A01 T02740193  RH  061%=      5-min Rain = 0
KES1 160023Z 07008KT 27/19 A2989 RMK A01 T02740194  RH  062%=      5-min Rain = 0
KES1 160024Z 07010KT 27/19 A2989 RMK A01 T02740194  RH  062%=      5-min Rain = 0
KES1 160025Z 07009KT 27/19 A2989 RMK A01 T02740193  RH  061%=      5-min Rain = 0
KES1 160026Z 07009KT 27/19 A2989 RMK A01 T02740194  RH  062%=      5-min Rain = 0
KES1 160027Z 06009KT 28/20 A2989 RMK A01 T02750195  RH  062%=      5-min Rain = 0
KES1 160028Z 06011KT 28/19 A2989 RMK A01 T02750194  RH  062%=      5-min Rain = 0
KES1 160029Z 06012KT 28/19 A2989 RMK A01 T02750193  RH  061%=      5-min Rain = 0
KES1 160030Z 06010KT 28/19 A2989 RMK A01 T02750194  RH  061%=      5-min Rain = 0
KES1 160031Z 07010KT 28/20 A2989 RMK A01 T02750195  RH  062%=      5-min Rain = 0
KES1 160032Z 07011KT 28/19 A2989 RMK A01 T02750194  RH  061%=      5-min Rain = 0
KES1 160033Z 07010KT 28/19 A2989 RMK A01 T02750194  RH  061%=      5-min Rain = 0
KES1 160034Z 07011KT 28/19 A2989 RMK A01 T02750194  RH  061%=      5-min Rain = 0
KES1 160035Z 07010KT 28/19 A2988 RMK A01 T02750194  RH  061%=      5-min Rain = 0
KES1 160036Z 07011KT 28/20 A2988 RMK A01 T02750195  RH  062%=      5-min Rain = 0
KES1 160037Z 07009KT 28/20 A2988 RMK A01 T02750196  RH  062%=      5-min Rain = 0
KES1 160038Z 07011KT 27/20 A2988 RMK A01 T02740197  RH  063%=      5-min Rain = 0
KES1 160039Z 07012KT 27/20 A2988 RMK A01 T02740195  RH  062%=      5-min Rain = 0
KES1 160040Z 07011KT 27/20 A2988 RMK A01 T02730195  RH  062%=      5-min Rain = 0
KES1 160041Z 07009KT 27/20 A2988 RMK A01 T02730195  RH  063%=      5-min Rain = 0
KES1 160042Z 07010KT 27/20 A2988 RMK A01 T02730196  RH  063%=      5-min Rain = 0
KES1 160043Z 07010KT 27/20 A2988 RMK A01 T02730195  RH  063%=      5-min Rain = 0
KES1 160044Z 06012KT 27/20 A2988 RMK A01 T02720196  RH  063%=      5-min Rain = 0
KES1 160045Z 07011KT 27/20 A2988 RMK A01 T02720195  RH  063%=      5-min Rain = 0
KES1 160046Z 07010KT 27/20 A2988 RMK A01 T02720195  RH  063%=      5-min Rain = 0
KES1 160047Z 08011KT 27/20 A2988 RMK A01 T02720197  RH  064%=      5-min Rain = 0
KES1 160048Z 07012KT 27/20 A2988 RMK A01 T02710195  RH  063%=      5-min Rain = 0
KES1 160049Z 07011KT 27/20 A2988 RMK A01 T02710195  RH  063%=      5-min Rain = 0
KES1 160050Z 07011KT 27/20 A2988 RMK A01 T02700196  RH  064%=      5-min Rain = 0
KES1 160051Z 06011KT 27/20 A2988 RMK A01 T02700195  RH  064%=      5-min Rain = 0
KES1 160052Z 07009KT 27/20 A2989 RMK A01 T02690195  RH  064%=      5-min Rain = 0
KES1 160053Z 06010KT 27/20 A2989 RMK A01 T02680196  RH  065%=      5-min Rain = 0
KES1 160054Z 06010KT 27/20 A2988 RMK A01 T02680196  RH  065%=      5-min Rain = 0
KES1 160055Z 06010KT 27/20 A2988 RMK A01 T02670196  RH  065%=      5-min Rain = 0
KES1 160056Z 06008KT 27/20 A2988 RMK A01 T02670196  RH  065%=      5-min Rain = 0
KES1 160057Z 06008KT 27/20 A2989 RMK A01 T02660197  RH  065%=      5-min Rain = 0
KES1 160058Z 06010KT 27/20 A2989 RMK A01 T02660197  RH  066%=      5-min Rain = 0
KES1 160059Z 07008KT 27/20 A2989 RMK A01 T02660197  RH  066%=      5-min Rain = 0
KES1 160100Z 07009KT 27/20 A2989 RMK A01 T02650197  RH  066%=      5-min Rain = 0
KES1 160101Z 07007KT 27/20 A2989 RMK A01 T02650198  RH  066%=      5-min Rain = 0
KES1 160102Z 07009KT 27/20 A2989 RMK A01 T02650197  RH  066%=      5-min Rain = 0
KES1 160103Z 07007KT 26/20 A2989 RMK A01 T02640196  RH  066%=      5-min Rain = 0
KES1 160104Z 06006KT 26/20 A2989 RMK A01 T02640197  RH  066%=      5-min Rain = 0
KES1 160105Z 06006KT 26/20 A2989 RMK A01 T02640198  RH  067%=      5-min Rain = 0
KES1 160106Z 07006KT 26/20 A299 RMK A01 T02640198  RH  067%=      5-min Rain = 0
KES1 160107Z 06007KT 26/20 A299 RMK A01 T02640198  RH  067%=      5-min Rain = 0
KES1 160108Z 06008KT 26/20 A299 RMK A01 T02630198  RH  067%=      5-min Rain = 0
KES1 160109Z 06007KT 26/20 A299 RMK A01 T02640198  RH  067%=      5-min Rain = 0
KES1 160110Z 07007KT 26/20 A299 RMK A01 T02640199  RH  067%=      5-min Rain = 0
KES1 160111Z 06006KT 26/20 A299 RMK A01 T02640198  RH  067%=      5-min Rain = 0
KES1 160112Z 06008KT 26/20 A2989 RMK A01 T02640200  RH  068%=      5-min Rain = 0
KES1 160113Z 06007KT 26/20 A2989 RMK A01 T02640200  RH  068%=      5-min Rain = 0
KES1 160114Z 07007KT 26/20 A2989 RMK A01 T02640200  RH  068%=      5-min Rain = 0
KES1 160115Z 06007KT 26/20 A2989 RMK A01 T02630200  RH  068%=      5-min Rain = 0
KES1 160116Z 06007KT 26/20 A2989 RMK A01 T02630200  RH  068%=      5-min Rain = 0
KES1 160117Z 06009KT 26/20 A2989 RMK A01 T02630200  RH  068%=      5-min Rain = 0
KES1 160118Z 09006KT 26/20 A299 RMK A01 T02630200  RH  068%=      5-min Rain = 0
KES1 160119Z 09009KT 26/20 A299 RMK A01 T02620200  RH  069%=      5-min Rain = 0
KES1 160120Z 09010KT 26/20 A299 RMK A01 T02620200  RH  069%=      5-min Rain = 0
KES1 160121Z 10008KT 26/20 A299 RMK A01 T02620200  RH  069%=      5-min Rain = 0
KES1 160122Z 10010KT 26/20 A299 RMK A01 T02630201  RH  069%=      5-min Rain = 0
KES1 160123Z 09012KT 26/20 A299 RMK A01 T02630200  RH  069%=      5-min Rain = 0
KES1 160124Z 09011KT 26/20 A299 RMK A01 T02630200  RH  068%=      5-min Rain = 0
KES1 160125Z 09011KT 26/20 A299 RMK A01 T02630200  RH  068%=      5-min Rain = 0
KES1 160126Z 09011KT 26/20 A299 RMK A01 T02630201  RH  068%=      5-min Rain = 0
KES1 160127Z 09011KT 26/20 A299 RMK A01 T02630201  RH  069%=      5-min Rain = 0
KES1 160128Z 08010KT 26/20 A2991 RMK A01 T02630201  RH  069%=      5-min Rain = 0
KES1 160129Z 09010KT 26/20 A2991 RMK A01 T02620201  RH  069%=      5-min Rain = 0
KES1 160130Z 09011KT 26/20 A2991 RMK A01 T02610201  RH  069%=      5-min Rain = 0
KES1 160131Z 09011KT 26/20 A2991 RMK A01 T02610200  RH  069%=      5-min Rain = 0
KES1 160132Z 09010KT 26/20 A2991 RMK A01 T02610200  RH  069%=      5-min Rain = 0
KES1 160133Z 09009KT 26/20 A2991 RMK A01 T02610200  RH  069%=      5-min Rain = 0
KES1 160134Z 08009KT 26/20 A2991 RMK A01 T02600200  RH  069%=      5-min Rain = 0
KES1 160135Z 08008KT 26/20 A2991 RMK A01 T02600201  RH  070%=      5-min Rain = 0
KES1 160136Z 07006KT 26/20 A2991 RMK A01 T02590201  RH  070%=      5-min Rain = 0
KES1 160137Z 08007KT 26/20 A2991 RMK A01 T02580201  RH  071%=      5-min Rain = 0
KES1 160138Z 07008KT 26/20 A2992 RMK A01 T02570200  RH  071%=      5-min Rain = 0
KES1 160139Z 08009KT 26/20 A2992 RMK A01 T02570200  RH  071%=      5-min Rain = 0
KES1 160140Z 08007KT 26/20 A2992 RMK A01 T02570200  RH  071%=      5-min Rain = 0
KES1 160141Z 08007KT 26/20 A2993 RMK A01 T02570200  RH  071%=      5-min Rain = 0
KES1 160142Z 08008KT 26/20 A2993 RMK A01 T02570200  RH  071%=      5-min Rain = 0
KES1 160143Z 07007KT 26/20 A2993 RMK A01 T02570200  RH  071%=      5-min Rain = 0
KES1 160144Z 07006KT 26/20 A2993 RMK A01 T02570201  RH  071%=      5-min Rain = 0
KES1 160145Z 07007KT 26/20 A2993 RMK A01 T02560201  RH  071%=      5-min Rain = 0
KES1 160146Z 07006KT 26/20 A2992 RMK A01 T02550200  RH  072%=      5-min Rain = 0
KES1 160147Z 07007KT 26/20 A2992 RMK A01 T02550201  RH  072%=      5-min Rain = 0
KES1 160148Z 06007KT 25/20 A2992 RMK A01 T02540200  RH  072%=      5-min Rain = 0
KES1 160149Z 06008KT 26/20 A2992 RMK A01 T02550200  RH  072%=      5-min Rain = 0
KES1 160150Z 06008KT 25/20 A2992 RMK A01 T02540200  RH  072%=      5-min Rain = 0
KES1 160151Z 07007KT 25/20 A2992 RMK A01 T02540200  RH  072%=      5-min Rain = 0
KES1 160152Z 06008KT 25/20 A2992 RMK A01 T02540200  RH  072%=      5-min Rain = 0
KES1 160153Z 07008KT 25/20 A2992 RMK A01 T02540200  RH  072%=      5-min Rain = 0
KES1 160154Z 06008KT 25/20 A2992 RMK A01 T02540200  RH  072%=      5-min Rain = 0
KES1 160155Z 06007KT 25/20 A2992 RMK A01 T02540200  RH  072%=      5-min Rain = 0
KES1 160156Z 06008KT 25/20 A2992 RMK A01 T02540200  RH  072%=      5-min Rain = 0
KES1 160157Z 06007KT 25/20 A2992 RMK A01 T02530200  RH  072%=      5-min Rain = 0
KES1 160158Z 06006KT 25/20 A2993 RMK A01 T02530201  RH  073%=      5-min Rain = 0
KES1 160159Z 06006KT 25/20 A2993 RMK A01 T02520201  RH  073%=      5-min Rain = 0
KES1 160200Z 06007KT 25/20 A2993 RMK A01 T02520200  RH  073%=      5-min Rain = 0
KES1 160201Z 06006KT 25/20 A2993 RMK A01 T02520200  RH  073%=      5-min Rain = 0
KES1 160202Z 06007KT 25/20 A2993 RMK A01 T02520201  RH  073%=      5-min Rain = 0
KES1 160203Z 06006KT 25/20 A2993 RMK A01 T02520201  RH  073%=      5-min Rain = 0
KES1 160204Z 06007KT 25/20 A2993 RMK A01 T02510201  RH  074%=      5-min Rain = 0
KES1 160205Z 06008KT 25/20 A2993 RMK A01 T02510201  RH  074%=      5-min Rain = 0
KES1 160206Z 05007KT 25/20 A2993 RMK A01 T02510200  RH  073%=      5-min Rain = 0
KES1 160207Z 06007KT 25/20 A2993 RMK A01 T02510200  RH  073%=      5-min Rain = 0
KES1 160208Z 05006KT 25/20 A2993 RMK A01 T02510201  RH  074%=      5-min Rain = 0
KES1 160209Z 05006KT 25/20 A2993 RMK A01 T02510202  RH  074%=      5-min Rain = 0
KES1 160210Z 05006KT 25/20 A2993 RMK A01 T02500202  RH  075%=      5-min Rain = 0
KES1 160211Z 06005KT 25/20 A2993 RMK A01 T02490203  RH  075%=      5-min Rain = 0
KES1 160212Z 06005KT 25/20 A2993 RMK A01 T02490203  RH  076%=      5-min Rain = 0
KES1 160213Z 05005KT 25/20 A2994 RMK A01 T02480204  RH  076%=      5-min Rain = 0
KES1 160214Z 05006KT 25/20 A2994 RMK A01 T02480204  RH  077%=      5-min Rain = 0
KES1 160215Z 05005KT 25/21 A2994 RMK A01 T02470205  RH  077%=      5-min Rain = 0
KES1 160216Z 05004KT 25/20 A2995 RMK A01 T02470204  RH  077%=      5-min Rain = 0
KES1 160217Z 05004KT 25/21 A2995 RMK A01 T02470205  RH  077%=      5-min Rain = 0
KES1 160218Z 05004KT 25/21 A2995 RMK A01 T02470206  RH  078%=      5-min Rain = 0
KES1 160219Z 05005KT 25/21 A2995 RMK A01 T02470206  RH  078%=      5-min Rain = 0
KES1 160220Z 05006KT 25/20 A2995 RMK A01 T02460204  RH  078%=      5-min Rain = 0
KES1 160221Z 05006KT 25/20 A2995 RMK A01 T02460204  RH  077%=      5-min Rain = 0
KES1 160222Z 05005KT 25/20 A2995 RMK A01 T02460204  RH  077%=      5-min Rain = 0
KES1 160223Z 05006KT 25/21 A2994 RMK A01 T02470205  RH  077%=      5-min Rain = 0
KES1 160224Z 06006KT 25/20 A2994 RMK A01 T02470204  RH  077%=      5-min Rain = 0
KES1 160225Z 06007KT 25/20 A2994 RMK A01 T02460203  RH  077%=      5-min Rain = 0
KES1 160226Z 06008KT 25/20 A2994 RMK A01 T02470203  RH  077%=      5-min Rain = 0
KES1 160227Z 04006KT 25/20 A2994 RMK A01 T02470203  RH  076%=      5-min Rain = 0
KES1 160228Z 04007KT 25/20 A2994 RMK A01 T02480204  RH  077%=      5-min Rain = 0
KES1 160229Z 04007KT 25/20 A2994 RMK A01 T02470204  RH  077%=      5-min Rain = 0
KES1 160230Z 04006KT 25/21 A2994 RMK A01 T02470205  RH  077%=      5-min Rain = 0
KES1 160231Z 04007KT 25/20 A2994 RMK A01 T02460204  RH  077%=      5-min Rain = 0
KES1 160232Z 04006KT 25/20 A2994 RMK A01 T02460204  RH  077%=      5-min Rain = 0
KES1 160233Z 04007KT 25/21 A2994 RMK A01 T02460205  RH  078%=      5-min Rain = 0
KES1 160234Z 05007KT 25/20 A2995 RMK A01 T02460204  RH  078%=      5-min Rain = 0
KES1 160235Z 04006KT 25/20 A2995 RMK A01 T02450204  RH  078%=      5-min Rain = 0
KES1 160236Z 05006KT 25/21 A2995 RMK A01 T02450205  RH  078%=      5-min Rain = 0
KES1 160237Z 06005KT 25/20 A2996 RMK A01 T02450204  RH  078%=      5-min Rain = 0
KES1 160238Z 06006KT 25/20 A2995 RMK A01 T02450203  RH  077%=      5-min Rain = 0
KES1 160239Z 06005KT 25/20 A2995 RMK A01 T02450202  RH  077%=      5-min Rain = 0
KES1 160240Z 05008KT 25/20 A2995 RMK A01 T02450201  RH  076%=      5-min Rain = 0
KES1 160241Z 06010KT 25/20 A2995 RMK A01 T02460196  RH  074%=      5-min Rain = 0
KES1 160242Z 05007KT 25/20 A2995 RMK A01 T02480195  RH  073%=      5-min Rain = 0
KES1 160243Z 04008KT 25/20 A2995 RMK A01 T02480195  RH  072%=      5-min Rain = 0
KES1 160244Z 03008KT 25/19 A2995 RMK A01 T02480194  RH  072%=      5-min Rain = 0
KES1 160245Z 02007KT 25/19 A2996 RMK A01 T02480192  RH  071%=      5-min Rain = 0
KES1 160246Z 02007KT 25/19 A2996 RMK A01 T02490193  RH  071%=      5-min Rain = 0
KES1 160247Z 04007KT 25/19 A2996 RMK A01 T02480192  RH  071%=      5-min Rain = 0
KES1 160248Z 04008KT 25/19 A2997 RMK A01 T02480189  RH  069%=      5-min Rain = 0
KES1 160249Z 04005KT 25/19 A2997 RMK A01 T02490187  RH  069%=      5-min Rain = 0
KES1 160250Z 05003KT 25/19 A2997 RMK A01 T02490188  RH  069%=      5-min Rain = 0
KES1 160251Z 05003KT 25/19 A2997 RMK A01 T02490188  RH  069%=      5-min Rain = 0
KES1 160252Z 06003KT 25/19 A2997 RMK A01 T02490189  RH  069%=      5-min Rain = 0
KES1 160253Z 06005KT 25/19 A2997 RMK A01 T02490188  RH  069%=      5-min Rain = 0
KES1 160254Z 05004KT 25/18 A2996 RMK A01 T02490184  RH  067%=      5-min Rain = 0
KES1 160255Z 06004KT 25/18 A2996 RMK A01 T02490184  RH  067%=      5-min Rain = 0
KES1 160256Z 08004KT 25/18 A2995 RMK A01 T02490184  RH  067%=      5-min Rain = 0
KES1 160257Z 09005KT 25/18 A2995 RMK A01 T02480184  RH  067%=      5-min Rain = 0
KES1 160258Z 11005KT 25/18 A2995 RMK A01 T02480183  RH  067%=      5-min Rain = 0
KES1 160259Z 14008KT 25/19 A2995 RMK A01 T02480185  RH  068%=      5-min Rain = 0
KES1 160300Z 17014G19KT 25/18 A2994 RMK A01 T02470180  RH  066%=      5-min Rain = 0
KES1 160301Z 15013G18KT 23/17 A2994 RMK A01 T02340165  RH  065%=      5-min Rain = 0
KES1 160302Z 16017G26KT 22/16 A2993 RMK A01 T02210160  RH  068%=      5-min Rain = 0
KES1 160303Z 17021KT 21/16 A2993 RMK A01 T02110157  RH  071%=      5-min Rain = 0
KES1 160304Z 17016KT 21/16 A2993 RMK A01 T02050155  RH  073%=      5-min Rain = 0
KES1 160305Z 16010KT 20/16 A2993 RMK A01 T02020156  RH  075%=      5-min Rain = 0
KES1 160306Z 14008KT 20/16 A2993 RMK A01 T02010156  RH  076%=      5-min Rain = 0
KES1 160307Z 10010KT 20/16 A2993 RMK A01 T02000157  RH  076%=      5-min Rain = 0
KES1 160308Z 10008KT 20/16 A2993 RMK A01 T02000158  RH  076%=      5-min Rain = 0
KES1 160309Z 08006KT 20/16 A2993 RMK A01 T02000158  RH  077%=      5-min Rain = 0
KES1 160310Z 08008KT 20/16 A2994 RMK A01 T02000158  RH  077%=      5-min Rain = 0
KES1 160311Z 09009KT 20/16 A2994 RMK A01 T02010159  RH  076%=      5-min Rain = 0
KES1 160312Z 08009KT 20/16 A2995 RMK A01 T02020159  RH  076%=      5-min Rain = 0
KES1 160313Z 09008KT 20/16 A2995 RMK A01 T02030159  RH  076%=      5-min Rain = 0
KES1 160314Z 08006KT 20/16 A2995 RMK A01 T02030159  RH  076%=      5-min Rain = 0
KES1 160315Z 05004KT 20/16 A2996 RMK A01 T02030160  RH  076%=      5-min Rain = 0
KES1 160316Z 09006KT 20/16 A2996 RMK A01 T02030160  RH  076%=      5-min Rain = 0
KES1 160317Z 07009KT 20/16 A2997 RMK A01 T02030161  RH  077%=      5-min Rain = 0
KES1 160318Z 03008KT 20/16 A2998 RMK A01 T02030162  RH  077%=      5-min Rain = 0
KES1 160319Z 36005KT 20/17 A2998 RMK A01 T02030165  RH  079%=      5-min Rain = 0
KES1 160320Z 35006KT 20/17 A2998 RMK A01 T02030165  RH  079%=      5-min Rain = 0
KES1 160321Z 03006KT 20/17 A2999 RMK A01 T02040165  RH  079%=      5-min Rain = 0
KES1 160322Z 04005KT 20/17 A30 RMK A01 T02040166  RH  079%=      5-min Rain = 0.01
KES1 160323Z 02005KT 20/17 A3001 RMK A01 T02030165  RH  079%=      5-min Rain = 0
KES1 160324Z 35006KT 20/17 A3002 RMK A01 T02020167  RH  080%=      5-min Rain = 0.01
KES1 160325Z 33007KT 20/17 A3003 RMK A01 T02010169  RH  082%=      5-min Rain = 0
KES1 160326Z 33012KT 20/17 A3005 RMK A01 T02010171  RH  083%=      5-min Rain = 0
KES1 160327Z 34013KT 20/17 A3006 RMK A01 T02000173  RH  084%=      5-min Rain = 0
KES1 160328Z 36015G25KT 20/17 A3006 RMK A01 T02000173  RH  085%=      5-min Rain = 0.01
KES1 160329Z 34017G22KT 20/17 A3006 RMK A01 T02030171  RH  082%=      5-min Rain = 0
KES1 160330Z 34018KT 20/16 A3006 RMK A01 T02040161  RH  076%=      5-min Rain = 0.01
KES1 160331Z 34019G25KT 20/15 A3006 RMK A01 T02000149  RH  073%=      5-min Rain = 0.01
KES1 160332Z 34019KT 20/15 A3006 RMK A01 T01960146  RH  073%=      5-min Rain = 0.01
KES1 160333Z 34015G20KT 19/15 A3006 RMK A01 T01930147  RH  075%=      5-min Rain = 0.01
KES1 160334Z 34012KT 19/15 A3006 RMK A01 T01910149  RH  076%=      5-min Rain = 0.02
KES1 160335Z 33010KT 19/15 A3006 RMK A01 T01880151  RH  079%=      5-min Rain = 0.02
KES1 160336Z 33008KT 19/15 A3006 RMK A01 T01860151  RH  080%=      5-min Rain = 0.01
KES1 160337Z 33006KT 18/15 A3006 RMK A01 T01830152  RH  082%=      5-min Rain = 0.01
KES1 160338Z 27005KT 18/15 A3007 RMK A01 T01810154  RH  084%=      5-min Rain = 0
KES1 160339Z 23006KT 18/15 A3007 RMK A01 T01790153  RH  085%=      5-min Rain = 0.01
KES1 160340Z 16004KT 18/15 A3006 RMK A01 T01780152  RH  085%=      5-min Rain = 0
KES1 160341Z 15006KT 18/15 A3005 RMK A01 T01760154  RH  087%=      5-min Rain = 0.01
KES1 160342Z 16007KT 18/15 A3005 RMK A01 T01750154  RH  087%=      5-min Rain = 0.01
KES1 160343Z 17010KT 17/16 A3005 RMK A01 T01740155  RH  089%=      5-min Rain = 0
KES1 160344Z 16010KT 17/15 A3004 RMK A01 T01740154  RH  088%=      5-min Rain = 0.01
KES1 160345Z 14014KT 17/16 A3003 RMK A01 T01740155  RH  088%=      5-min Rain = 0
KES1 160346Z 15011KT 18/16 A3003 RMK A01 T01760160  RH  091%=      5-min Rain = 0.01
KES1 160347Z 15016KT 18/16 A3003 RMK A01 T01770161  RH  090%=      5-min Rain = 0
KES1 160348Z 15014KT 18/16 A3003 RMK A01 T01800163  RH  090%=      5-min Rain = 0
KES1 160349Z 15015G21KT 18/17 A3003 RMK A01 T01810167  RH  091%=      5-min Rain = 0.01
KES1 160350Z 15020KT 18/17 A3002 RMK A01 T01820169  RH  092%=      5-min Rain = 0
KES1 160351Z 14018G23KT 18/17 A3002 RMK A01 T01820167  RH  091%=      5-min Rain = 0
KES1 160352Z 13018KT 18/17 A3001 RMK A01 T01830166  RH  090%=      5-min Rain = 0
KES1 160353Z 13019KT 18/17 A30 RMK A01 T01830167  RH  090%=      5-min Rain = 0
KES1 160354Z 13018KT 18/17 A2999 RMK A01 T01830168  RH  091%=      5-min Rain = 0
KES1 160355Z 14018KT 18/17 A2999 RMK A01 T01820170  RH  092%=      5-min Rain = 0.01
KES1 160356Z 14019KT 18/17 A2999 RMK A01 T01820171  RH  093%=      5-min Rain = 0
KES1 160357Z 14019KT 18/17 A2999 RMK A01 T01820172  RH  094%=      5-min Rain = 0
KES1 160358Z 13021KT 18/17 A2998 RMK A01 T01820172  RH  094%=      5-min Rain = 0
KES1 160359Z 13020KT 18/17 A2997 RMK A01 T01820171  RH  093%=      5-min Rain = 0
KES1 160400Z 13019G24KT 18/17 A2996 RMK A01 T01820170  RH  092%=      5-min Rain = 0
KES1 160401Z 13020G25KT 18/17 A2996 RMK A01 T01820167  RH  091%=      5-min Rain = 0
KES1 160402Z 14019KT 18/16 A2997 RMK A01 T01820164  RH  089%=      5-min Rain = 0
KES1 160403Z 14019G26KT 18/17 A2997 RMK A01 T01820165  RH  090%=      5-min Rain = 0
KES1 160404Z 15016G21KT 18/17 A2996 RMK A01 T01820165  RH  090%=      5-min Rain = 0
KES1 160405Z 14021KT 18/17 A2995 RMK A01 T01810165  RH  090%=      5-min Rain = 0
KES1 160406Z 15023G28KT 18/16 A2995 RMK A01 T01800164  RH  090%=      5-min Rain = 0
KES1 160407Z 15022G27KT 18/16 A2995 RMK A01 T01780163  RH  091%=      5-min Rain = 0
KES1 160408Z 15024G30KT 18/16 A2995 RMK A01 T01760163  RH  092%=      5-min Rain = 0
KES1 160409Z 15022G30KT 18/16 A2996 RMK A01 T01760162  RH  091%=      5-min Rain = 0
KES1 160410Z 15022G27KT 18/16 A2995 RMK A01 T01760162  RH  091%=      5-min Rain = 0
KES1 160411Z 15020G25KT 18/16 A2994 RMK A01 T01760162  RH  091%=      5-min Rain = 0
KES1 160412Z 14022G27KT 18/16 A2993 RMK A01 T01760162  RH  091%=      5-min Rain = 0
KES1 160413Z 14022G29KT 18/16 A2992 RMK A01 T01770160  RH  090%=      5-min Rain = 0
KES1 160414Z 15020KT 18/16 A2992 RMK A01 T01780159  RH  088%=      5-min Rain = 0
KES1 160415Z 14024G29KT 18/16 A2991 RMK A01 T01800157  RH  087%=      5-min Rain = 0
KES1 160416Z 14023G28KT 18/16 A2989 RMK A01 T01810156  RH  085%=      5-min Rain = 0
KES1 160417Z 15027G34KT 18/16 A2989 RMK A01 T01810155  RH  084%=      5-min Rain = 0
KES1 160418Z 15026G31KT 18/15 A2988 RMK A01 T01820153  RH  083%=      5-min Rain = 0
KES1 160419Z 15024G30KT 18/15 A2988 RMK A01 T01820150  RH  082%=      5-min Rain = 0
KES1 160420Z 15024G32KT 18/15 A2987 RMK A01 T01820150  RH  082%=      5-min Rain = 0
KES1 160421Z 14021G27KT 18/15 A2988 RMK A01 T01820149  RH  081%=      5-min Rain = 0
KES1 160422Z 14021G32KT 18/15 A2987 RMK A01 T01820150  RH  082%=      5-min Rain = 0
KES1 160423Z 13027G33KT 18/15 A2986 RMK A01 T01810146  RH  080%=      5-min Rain = 0
KES1 160424Z 13029G36KT 18/14 A2985 RMK A01 T01810144  RH  079%=      5-min Rain = 0
KES1 160425Z 14022G29KT 18/15 A2986 RMK A01 T01810146  RH  080%=      5-min Rain = 0
KES1 160426Z 14022G29KT 18/15 A2986 RMK A01 T01790147  RH  081%=      5-min Rain = 0
KES1 160427Z 14020KT 18/15 A2987 RMK A01 T01780146  RH  082%=      5-min Rain = 0
KES1 160428Z 15018KT 18/15 A2988 RMK A01 T01780146  RH  082%=      5-min Rain = 0
KES1 160429Z 15017G22KT 18/15 A2988 RMK A01 T01780146  RH  082%=      5-min Rain = 0
KES1 160430Z 16016G22KT 18/15 A2988 RMK A01 T01780147  RH  082%=      5-min Rain = 0
KES1 160431Z 16019G25KT 18/15 A2987 RMK A01 T01770145  RH  081%=      5-min Rain = 0
KES1 160432Z 15022G28KT 18/14 A2986 RMK A01 T01790141  RH  078%=      5-min Rain = 0
KES1 160433Z 16024G29KT 18/14 A2986 RMK A01 T01830136  RH  074%=      5-min Rain = 0
KES1 160434Z 16021G26KT 19/13 A2987 RMK A01 T01860134  RH  072%=      5-min Rain = 0
KES1 160435Z 16019G25KT 19/13 A2988 RMK A01 T01890134  RH  071%=      5-min Rain = 0
KES1 160436Z 17020G26KT 19/13 A2987 RMK A01 T01900134  RH  070%=      5-min Rain = 0
KES1 160437Z 17017KT 19/13 A2987 RMK A01 T01910133  RH  069%=      5-min Rain = 0
KES1 160438Z 16020G27KT 19/13 A2987 RMK A01 T01930131  RH  068%=      5-min Rain = 0
KES1 160439Z 15020G25KT 20/13 A2987 RMK A01 T01950129  RH  066%=      5-min Rain = 0
KES1 160440Z 15015KT 20/13 A2987 RMK A01 T01970130  RH  065%=      5-min Rain = 0
KES1 160441Z 15018KT 20/13 A2987 RMK A01 T01980131  RH  065%=      5-min Rain = 0
KES1 160442Z 15019KT 20/13 A2986 RMK A01 T01980130  RH  065%=      5-min Rain = 0
KES1 160443Z 15017G22KT 20/13 A2986 RMK A01 T01970131  RH  065%=      5-min Rain = 0
KES1 160444Z 15018G24KT 20/13 A2985 RMK A01 T01980131  RH  066%=      5-min Rain = 0
KES1 160445Z 15016G21KT 20/13 A2985 RMK A01 T01980129  RH  064%=      5-min Rain = 0
KES1 160446Z 15018KT 20/13 A2985 RMK A01 T01990128  RH  063%=      5-min Rain = 0
KES1 160447Z 15018KT 20/13 A2985 RMK A01 T02010126  RH  062%=      5-min Rain = 0
KES1 160448Z 15018KT 20/12 A2985 RMK A01 T02030124  RH  061%=      5-min Rain = 0
KES1 160449Z 15021G27KT 21/12 A2984 RMK A01 T02060121  RH  058%=      5-min Rain = 0
KES1 160450Z 15021KT 21/12 A2984 RMK A01 T02090120  RH  057%=      5-min Rain = 0
KES1 160451Z 15021G30KT 21/12 A2984 RMK A01 T02120117  RH  054%=      5-min Rain = 0
KES1 160452Z 15021G29KT 22/11 A2984 RMK A01 T02150113  RH  052%=      5-min Rain = 0
KES1 160453Z 14021G27KT 22/11 A2984 RMK A01 T02190113  RH  051%=      5-min Rain = 0
KES1 160454Z 14017G22KT 22/11 A2984 RMK A01 T02210114  RH  050%=      5-min Rain = 0
KES1 160455Z 14018G23KT 22/11 A2984 RMK A01 T02220114  RH  050%=      5-min Rain = 0
KES1 160456Z 13019G26KT 22/11 A2983 RMK A01 T02230112  RH  049%=      5-min Rain = 0
KES1 160457Z 14019G25KT 22/11 A2983 RMK A01 T02240111  RH  049%=      5-min Rain = 0
KES1 160458Z 14016G21KT 23/11 A2984 RMK A01 T02250113  RH  049%=      5-min Rain = 0
KES1 160459Z 15017G23KT 23/11 A2984 RMK A01 T02250114  RH  049%=      5-min Rain = 0

Page generated in 0.037 seconds.